<?xml version="1.0" encoding="UTF-8" standalone="no" ?>
<gpx xmlns="http://www.topografix.com/GPX/1/1" xmlns:xsi="http://www.w3.org/2001/XMLSchema-instance" xsi:schemaLocation="http://www.topografix.com/GPX/1/1 http://www.topografix.com/GPX/1/1/gpx.xsd" version="1.1" creator="VisuGPX - https://www.visugpx.com">
  <metadata>
    <name>Mont du lyonnais St Martin</name>
    <desc><![CDATA[Circuits VTT autour de St martin en Haut pour vacances 2019]]></desc>
  </metadata>
  <trk>
    <name><![CDATA[8609348-vttdesmonts 2018_27km]]></name>
    <trkseg>
      <trkpt lat="45.65821" lon="4.55872">
        <ele>704</ele>
        <time>2019-07-29T10:30:22Z</time>
      </trkpt>
      <trkpt lat="45.65811" lon="4.55874">
        <ele>703</ele>
        <time>2019-07-29T10:30:24Z</time>
      </trkpt>
      <trkpt lat="45.65795" lon="4.5587">
        <ele>701</ele>
        <time>2019-07-29T10:30:28Z</time>
      </trkpt>
      <trkpt lat="45.65789" lon="4.55873">
        <ele>701</ele>
        <time>2019-07-29T10:30:30Z</time>
      </trkpt>
      <trkpt lat="45.65788" lon="4.55892">
        <ele>701</ele>
        <time>2019-07-29T10:30:33Z</time>
      </trkpt>
      <trkpt lat="45.65794" lon="4.56039">
        <ele>708</ele>
        <time>2019-07-29T10:30:57Z</time>
      </trkpt>
      <trkpt lat="45.65802" lon="4.56094">
        <ele>712</ele>
        <time>2019-07-29T10:31:06Z</time>
      </trkpt>
      <trkpt lat="45.65807" lon="4.56156">
        <ele>715</ele>
        <time>2019-07-29T10:31:16Z</time>
      </trkpt>
      <trkpt lat="45.65811" lon="4.56174">
        <ele>716</ele>
        <time>2019-07-29T10:31:19Z</time>
      </trkpt>
      <trkpt lat="45.65822" lon="4.56192">
        <ele>717</ele>
        <time>2019-07-29T10:31:23Z</time>
      </trkpt>
      <trkpt lat="45.65837" lon="4.56197">
        <ele>719</ele>
        <time>2019-07-29T10:31:27Z</time>
      </trkpt>
      <trkpt lat="45.65845" lon="4.56189">
        <ele>719</ele>
        <time>2019-07-29T10:31:29Z</time>
      </trkpt>
      <trkpt lat="45.65856" lon="4.56167">
        <ele>719</ele>
        <time>2019-07-29T10:31:33Z</time>
      </trkpt>
      <trkpt lat="45.65857" lon="4.56158">
        <ele>719</ele>
        <time>2019-07-29T10:31:35Z</time>
      </trkpt>
      <trkpt lat="45.65858" lon="4.5617">
        <ele>720</ele>
        <time>2019-07-29T10:31:37Z</time>
      </trkpt>
      <trkpt lat="45.65849" lon="4.56185">
        <ele>719</ele>
        <time>2019-07-29T10:31:40Z</time>
      </trkpt>
      <trkpt lat="45.65837" lon="4.56197">
        <ele>719</ele>
        <time>2019-07-29T10:31:44Z</time>
      </trkpt>
      <trkpt lat="45.65828" lon="4.56194">
        <ele>718</ele>
        <time>2019-07-29T10:31:46Z</time>
      </trkpt>
      <trkpt lat="45.65812" lon="4.5617">
        <ele>716</ele>
        <time>2019-07-29T10:31:51Z</time>
      </trkpt>
      <trkpt lat="45.65806" lon="4.56148">
        <ele>714</ele>
        <time>2019-07-29T10:31:55Z</time>
      </trkpt>
      <trkpt lat="45.65804" lon="4.56122">
        <ele>713</ele>
        <time>2019-07-29T10:31:59Z</time>
      </trkpt>
      <trkpt lat="45.65809" lon="4.56103">
        <ele>712</ele>
        <time>2019-07-29T10:32:03Z</time>
      </trkpt>
      <trkpt lat="45.65823" lon="4.56095">
        <ele>713</ele>
        <time>2019-07-29T10:32:06Z</time>
      </trkpt>
      <trkpt lat="45.65866" lon="4.56093">
        <ele>718</ele>
        <time>2019-07-29T10:32:16Z</time>
      </trkpt>
      <trkpt lat="45.65933" lon="4.56096">
        <ele>726</ele>
        <time>2019-07-29T10:32:32Z</time>
      </trkpt>
      <trkpt lat="45.65959" lon="4.56102">
        <ele>729</ele>
        <time>2019-07-29T10:32:38Z</time>
      </trkpt>
      <trkpt lat="45.65965" lon="4.56093">
        <ele>729</ele>
        <time>2019-07-29T10:32:40Z</time>
      </trkpt>
      <trkpt lat="45.65982" lon="4.56044">
        <ele>732</ele>
        <time>2019-07-29T10:32:49Z</time>
      </trkpt>
      <trkpt lat="45.66006" lon="4.5595">
        <ele>732</ele>
        <time>2019-07-29T10:33:05Z</time>
      </trkpt>
      <trkpt lat="45.66046" lon="4.55944">
        <ele>729</ele>
        <time>2019-07-29T10:33:15Z</time>
      </trkpt>
      <trkpt lat="45.66077" lon="4.5597">
        <ele>729</ele>
        <time>2019-07-29T10:33:23Z</time>
      </trkpt>
      <trkpt lat="45.66131" lon="4.56005">
        <ele>726</ele>
        <time>2019-07-29T10:33:37Z</time>
      </trkpt>
      <trkpt lat="45.66163" lon="4.56032">
        <ele>725</ele>
        <time>2019-07-29T10:33:45Z</time>
      </trkpt>
      <trkpt lat="45.66229" lon="4.56126">
        <ele>730</ele>
        <time>2019-07-29T10:34:07Z</time>
      </trkpt>
      <trkpt lat="45.66257" lon="4.56194">
        <ele>733</ele>
        <time>2019-07-29T10:34:20Z</time>
      </trkpt>
      <trkpt lat="45.66288" lon="4.56254">
        <ele>736</ele>
        <time>2019-07-29T10:34:32Z</time>
      </trkpt>
      <trkpt lat="45.66294" lon="4.56286">
        <ele>736</ele>
        <time>2019-07-29T10:34:38Z</time>
      </trkpt>
      <trkpt lat="45.66296" lon="4.56335">
        <ele>736</ele>
        <time>2019-07-29T10:34:46Z</time>
      </trkpt>
      <trkpt lat="45.66324" lon="4.56406">
        <ele>735</ele>
        <time>2019-07-29T10:34:59Z</time>
      </trkpt>
      <trkpt lat="45.66347" lon="4.56499">
        <ele>734</ele>
        <time>2019-07-29T10:35:15Z</time>
      </trkpt>
      <trkpt lat="45.6639" lon="4.56607">
        <ele>731</ele>
        <time>2019-07-29T10:35:35Z</time>
      </trkpt>
      <trkpt lat="45.66408" lon="4.56673">
        <ele>731</ele>
        <time>2019-07-29T10:35:47Z</time>
      </trkpt>
      <trkpt lat="45.66407" lon="4.56722">
        <ele>732</ele>
        <time>2019-07-29T10:35:55Z</time>
      </trkpt>
      <trkpt lat="45.66416" lon="4.56827">
        <ele>735</ele>
        <time>2019-07-29T10:36:12Z</time>
      </trkpt>
      <trkpt lat="45.6643" lon="4.56912">
        <ele>736</ele>
        <time>2019-07-29T10:36:26Z</time>
      </trkpt>
      <trkpt lat="45.66438" lon="4.56941">
        <ele>736</ele>
        <time>2019-07-29T10:36:32Z</time>
      </trkpt>
      <trkpt lat="45.66452" lon="4.56967">
        <ele>736</ele>
        <time>2019-07-29T10:36:37Z</time>
      </trkpt>
      <trkpt lat="45.66477" lon="4.56996">
        <ele>736</ele>
        <time>2019-07-29T10:36:44Z</time>
      </trkpt>
      <trkpt lat="45.66494" lon="4.57045">
        <ele>735</ele>
        <time>2019-07-29T10:36:53Z</time>
      </trkpt>
      <trkpt lat="45.66499" lon="4.57128">
        <ele>732</ele>
        <time>2019-07-29T10:37:07Z</time>
      </trkpt>
      <trkpt lat="45.66505" lon="4.57183">
        <ele>731</ele>
        <time>2019-07-29T10:37:16Z</time>
      </trkpt>
      <trkpt lat="45.66511" lon="4.57209">
        <ele>730</ele>
        <time>2019-07-29T10:37:21Z</time>
      </trkpt>
      <trkpt lat="45.66521" lon="4.57236">
        <ele>728</ele>
        <time>2019-07-29T10:37:26Z</time>
      </trkpt>
      <trkpt lat="45.66558" lon="4.5729">
        <ele>722</ele>
        <time>2019-07-29T10:37:38Z</time>
      </trkpt>
      <trkpt lat="45.66571" lon="4.57306">
        <ele>719</ele>
        <time>2019-07-29T10:37:42Z</time>
      </trkpt>
      <trkpt lat="45.66579" lon="4.57312">
        <ele>717</ele>
        <time>2019-07-29T10:37:44Z</time>
      </trkpt>
      <trkpt lat="45.66587" lon="4.57317">
        <ele>716</ele>
        <time>2019-07-29T10:37:46Z</time>
      </trkpt>
      <trkpt lat="45.66602" lon="4.57319">
        <ele>716</ele>
        <time>2019-07-29T10:37:50Z</time>
      </trkpt>
      <trkpt lat="45.66619" lon="4.57307">
        <ele>717</ele>
        <time>2019-07-29T10:37:54Z</time>
      </trkpt>
      <trkpt lat="45.66634" lon="4.57304">
        <ele>718</ele>
        <time>2019-07-29T10:37:57Z</time>
      </trkpt>
      <trkpt lat="45.66682" lon="4.57303">
        <ele>718</ele>
        <time>2019-07-29T10:38:09Z</time>
      </trkpt>
      <trkpt lat="45.66768" lon="4.57312">
        <ele>718</ele>
        <time>2019-07-29T10:38:29Z</time>
      </trkpt>
      <trkpt lat="45.66828" lon="4.57292">
        <ele>724</ele>
        <time>2019-07-29T10:38:43Z</time>
      </trkpt>
      <trkpt lat="45.66881" lon="4.57313">
        <ele>718</ele>
        <time>2019-07-29T10:38:56Z</time>
      </trkpt>
      <trkpt lat="45.66895" lon="4.57309">
        <ele>717</ele>
        <time>2019-07-29T10:38:59Z</time>
      </trkpt>
      <trkpt lat="45.66902" lon="4.57288">
        <ele>720</ele>
        <time>2019-07-29T10:39:03Z</time>
      </trkpt>
      <trkpt lat="45.66915" lon="4.57209">
        <ele>726</ele>
        <time>2019-07-29T10:39:16Z</time>
      </trkpt>
      <trkpt lat="45.66936" lon="4.57024">
        <ele>730</ele>
        <time>2019-07-29T10:39:47Z</time>
      </trkpt>
      <trkpt lat="45.66951" lon="4.56959">
        <ele>734</ele>
        <time>2019-07-29T10:39:58Z</time>
      </trkpt>
      <trkpt lat="45.66988" lon="4.56865">
        <ele>735</ele>
        <time>2019-07-29T10:40:16Z</time>
      </trkpt>
      <trkpt lat="45.6703" lon="4.5681">
        <ele>732</ele>
        <time>2019-07-29T10:40:29Z</time>
      </trkpt>
      <trkpt lat="45.67048" lon="4.56774">
        <ele>732</ele>
        <time>2019-07-29T10:40:36Z</time>
      </trkpt>
      <trkpt lat="45.67099" lon="4.56756">
        <ele>728</ele>
        <time>2019-07-29T10:40:49Z</time>
      </trkpt>
      <trkpt lat="45.6715" lon="4.56761">
        <ele>725</ele>
        <time>2019-07-29T10:41:01Z</time>
      </trkpt>
      <trkpt lat="45.67235" lon="4.56729">
        <ele>720</ele>
        <time>2019-07-29T10:41:21Z</time>
      </trkpt>
      <trkpt lat="45.67262" lon="4.56721">
        <ele>719</ele>
        <time>2019-07-29T10:41:28Z</time>
      </trkpt>
      <trkpt lat="45.67277" lon="4.56713">
        <ele>719</ele>
        <time>2019-07-29T10:41:31Z</time>
      </trkpt>
      <trkpt lat="45.67301" lon="4.56681">
        <ele>720</ele>
        <time>2019-07-29T10:41:39Z</time>
      </trkpt>
      <trkpt lat="45.67371" lon="4.56562">
        <ele>717</ele>
        <time>2019-07-29T10:42:04Z</time>
      </trkpt>
      <trkpt lat="45.6741" lon="4.56508">
        <ele>717</ele>
        <time>2019-07-29T10:42:17Z</time>
      </trkpt>
      <trkpt lat="45.67507" lon="4.56395">
        <ele>714</ele>
        <time>2019-07-29T10:42:46Z</time>
      </trkpt>
      <trkpt lat="45.67552" lon="4.56347">
        <ele>716</ele>
        <time>2019-07-29T10:42:59Z</time>
      </trkpt>
      <trkpt lat="45.67576" lon="4.56327">
        <ele>716</ele>
        <time>2019-07-29T10:43:06Z</time>
      </trkpt>
      <trkpt lat="45.67631" lon="4.56308">
        <ele>715</ele>
        <time>2019-07-29T10:43:19Z</time>
      </trkpt>
      <trkpt lat="45.67685" lon="4.56312">
        <ele>715</ele>
        <time>2019-07-29T10:43:32Z</time>
      </trkpt>
      <trkpt lat="45.67783" lon="4.56354">
        <ele>715</ele>
        <time>2019-07-29T10:43:55Z</time>
      </trkpt>
      <trkpt lat="45.67797" lon="4.56356">
        <ele>715</ele>
        <time>2019-07-29T10:43:59Z</time>
      </trkpt>
      <trkpt lat="45.67817" lon="4.56354">
        <ele>714</ele>
        <time>2019-07-29T10:44:03Z</time>
      </trkpt>
      <trkpt lat="45.67865" lon="4.5633">
        <ele>712</ele>
        <time>2019-07-29T10:44:15Z</time>
      </trkpt>
      <trkpt lat="45.6792" lon="4.56317">
        <ele>710</ele>
        <time>2019-07-29T10:44:28Z</time>
      </trkpt>
      <trkpt lat="45.67973" lon="4.56316">
        <ele>703</ele>
        <time>2019-07-29T10:44:41Z</time>
      </trkpt>
      <trkpt lat="45.6801" lon="4.56279">
        <ele>697</ele>
        <time>2019-07-29T10:44:51Z</time>
      </trkpt>
      <trkpt lat="45.68035" lon="4.56235">
        <ele>693</ele>
        <time>2019-07-29T10:45:01Z</time>
      </trkpt>
      <trkpt lat="45.68042" lon="4.56227">
        <ele>693</ele>
        <time>2019-07-29T10:45:03Z</time>
      </trkpt>
      <trkpt lat="45.68075" lon="4.56205">
        <ele>690</ele>
        <time>2019-07-29T10:45:11Z</time>
      </trkpt>
      <trkpt lat="45.68082" lon="4.56197">
        <ele>689</ele>
        <time>2019-07-29T10:45:13Z</time>
      </trkpt>
      <trkpt lat="45.68117" lon="4.56128">
        <ele>690</ele>
        <time>2019-07-29T10:45:27Z</time>
      </trkpt>
      <trkpt lat="45.68135" lon="4.56104">
        <ele>691</ele>
        <time>2019-07-29T10:45:33Z</time>
      </trkpt>
      <trkpt lat="45.68187" lon="4.56076">
        <ele>696</ele>
        <time>2019-07-29T10:45:46Z</time>
      </trkpt>
      <trkpt lat="45.68273" lon="4.56037">
        <ele>703</ele>
        <time>2019-07-29T10:46:07Z</time>
      </trkpt>
      <trkpt lat="45.68302" lon="4.56028">
        <ele>706</ele>
        <time>2019-07-29T10:46:14Z</time>
      </trkpt>
      <trkpt lat="45.68411" lon="4.56018">
        <ele>715</ele>
        <time>2019-07-29T10:46:39Z</time>
      </trkpt>
      <trkpt lat="45.68431" lon="4.56021">
        <ele>714</ele>
        <time>2019-07-29T10:46:44Z</time>
      </trkpt>
      <trkpt lat="45.68488" lon="4.56016">
        <ele>711</ele>
        <time>2019-07-29T10:46:57Z</time>
      </trkpt>
      <trkpt lat="45.68545" lon="4.55945">
        <ele>710</ele>
        <time>2019-07-29T10:47:15Z</time>
      </trkpt>
      <trkpt lat="45.68563" lon="4.55903">
        <ele>709</ele>
        <time>2019-07-29T10:47:23Z</time>
      </trkpt>
      <trkpt lat="45.68599" lon="4.5584">
        <ele>710</ele>
        <time>2019-07-29T10:47:36Z</time>
      </trkpt>
      <trkpt lat="45.68616" lon="4.55817">
        <ele>712</ele>
        <time>2019-07-29T10:47:42Z</time>
      </trkpt>
      <trkpt lat="45.68629" lon="4.55791">
        <ele>713</ele>
        <time>2019-07-29T10:47:47Z</time>
      </trkpt>
      <trkpt lat="45.68636" lon="4.55758">
        <ele>714</ele>
        <time>2019-07-29T10:47:53Z</time>
      </trkpt>
      <trkpt lat="45.68646" lon="4.55726">
        <ele>713</ele>
        <time>2019-07-29T10:47:58Z</time>
      </trkpt>
      <trkpt lat="45.68695" lon="4.557">
        <ele>716</ele>
        <time>2019-07-29T10:48:11Z</time>
      </trkpt>
      <trkpt lat="45.6874" lon="4.55695">
        <ele>720</ele>
        <time>2019-07-29T10:48:21Z</time>
      </trkpt>
      <trkpt lat="45.68786" lon="4.55668">
        <ele>723</ele>
        <time>2019-07-29T10:48:33Z</time>
      </trkpt>
      <trkpt lat="45.68794" lon="4.5565">
        <ele>722</ele>
        <time>2019-07-29T10:48:36Z</time>
      </trkpt>
      <trkpt lat="45.68797" lon="4.55567">
        <ele>716</ele>
        <time>2019-07-29T10:48:50Z</time>
      </trkpt>
      <trkpt lat="45.68803" lon="4.5553">
        <ele>712</ele>
        <time>2019-07-29T10:48:56Z</time>
      </trkpt>
      <trkpt lat="45.68827" lon="4.55468">
        <ele>708</ele>
        <time>2019-07-29T10:49:08Z</time>
      </trkpt>
      <trkpt lat="45.68837" lon="4.55419">
        <ele>705</ele>
        <time>2019-07-29T10:49:16Z</time>
      </trkpt>
      <trkpt lat="45.6884" lon="4.55375">
        <ele>700</ele>
        <time>2019-07-29T10:49:23Z</time>
      </trkpt>
      <trkpt lat="45.68857" lon="4.55341">
        <ele>698</ele>
        <time>2019-07-29T10:49:30Z</time>
      </trkpt>
      <trkpt lat="45.68874" lon="4.55298">
        <ele>699</ele>
        <time>2019-07-29T10:49:38Z</time>
      </trkpt>
      <trkpt lat="45.68881" lon="4.55294">
        <ele>699</ele>
        <time>2019-07-29T10:49:40Z</time>
      </trkpt>
      <trkpt lat="45.68905" lon="4.55299">
        <ele>701</ele>
        <time>2019-07-29T10:49:45Z</time>
      </trkpt>
      <trkpt lat="45.68925" lon="4.55309">
        <ele>702</ele>
        <time>2019-07-29T10:49:50Z</time>
      </trkpt>
      <trkpt lat="45.68942" lon="4.55313">
        <ele>703</ele>
        <time>2019-07-29T10:49:54Z</time>
      </trkpt>
      <trkpt lat="45.68956" lon="4.55305">
        <ele>705</ele>
        <time>2019-07-29T10:49:58Z</time>
      </trkpt>
      <trkpt lat="45.68984" lon="4.5527">
        <ele>711</ele>
        <time>2019-07-29T10:50:07Z</time>
      </trkpt>
      <trkpt lat="45.69027" lon="4.55211">
        <ele>720</ele>
        <time>2019-07-29T10:50:20Z</time>
      </trkpt>
      <trkpt lat="45.69035" lon="4.55192">
        <ele>722</ele>
        <time>2019-07-29T10:50:24Z</time>
      </trkpt>
      <trkpt lat="45.69037" lon="4.55174">
        <ele>724</ele>
        <time>2019-07-29T10:50:27Z</time>
      </trkpt>
      <trkpt lat="45.69034" lon="4.55139">
        <ele>727</ele>
        <time>2019-07-29T10:50:33Z</time>
      </trkpt>
      <trkpt lat="45.69027" lon="4.55111">
        <ele>730</ele>
        <time>2019-07-29T10:50:38Z</time>
      </trkpt>
      <trkpt lat="45.69031" lon="4.55069">
        <ele>733</ele>
        <time>2019-07-29T10:50:45Z</time>
      </trkpt>
      <trkpt lat="45.69038" lon="4.55055">
        <ele>735</ele>
        <time>2019-07-29T10:50:47Z</time>
      </trkpt>
      <trkpt lat="45.69103" lon="4.54995">
        <ele>749</ele>
        <time>2019-07-29T10:51:05Z</time>
      </trkpt>
      <trkpt lat="45.69121" lon="4.5498">
        <ele>755</ele>
        <time>2019-07-29T10:51:10Z</time>
      </trkpt>
      <trkpt lat="45.69134" lon="4.54977">
        <ele>759</ele>
        <time>2019-07-29T10:51:13Z</time>
      </trkpt>
      <trkpt lat="45.69147" lon="4.54981">
        <ele>761</ele>
        <time>2019-07-29T10:51:16Z</time>
      </trkpt>
      <trkpt lat="45.69189" lon="4.55032">
        <ele>760</ele>
        <time>2019-07-29T10:51:29Z</time>
      </trkpt>
      <trkpt lat="45.69226" lon="4.55095">
        <ele>756</ele>
        <time>2019-07-29T10:51:43Z</time>
      </trkpt>
      <trkpt lat="45.69253" lon="4.55128">
        <ele>754</ele>
        <time>2019-07-29T10:51:51Z</time>
      </trkpt>
      <trkpt lat="45.69257" lon="4.55131">
        <ele>754</ele>
        <time>2019-07-29T10:51:52Z</time>
      </trkpt>
      <trkpt lat="45.69277" lon="4.55134">
        <ele>755</ele>
        <time>2019-07-29T10:51:57Z</time>
      </trkpt>
      <trkpt lat="45.69303" lon="4.55134">
        <ele>758</ele>
        <time>2019-07-29T10:52:03Z</time>
      </trkpt>
      <trkpt lat="45.69325" lon="4.5513">
        <ele>761</ele>
        <time>2019-07-29T10:52:08Z</time>
      </trkpt>
      <trkpt lat="45.69349" lon="4.55121">
        <ele>763</ele>
        <time>2019-07-29T10:52:14Z</time>
      </trkpt>
      <trkpt lat="45.69365" lon="4.55112">
        <ele>764</ele>
        <time>2019-07-29T10:52:18Z</time>
      </trkpt>
      <trkpt lat="45.69392" lon="4.55076">
        <ele>770</ele>
        <time>2019-07-29T10:52:26Z</time>
      </trkpt>
      <trkpt lat="45.69439" lon="4.55044">
        <ele>775</ele>
        <time>2019-07-29T10:52:39Z</time>
      </trkpt>
      <trkpt lat="45.69465" lon="4.55014">
        <ele>781</ele>
        <time>2019-07-29T10:52:46Z</time>
      </trkpt>
      <trkpt lat="45.69488" lon="4.54993">
        <ele>784</ele>
        <time>2019-07-29T10:52:53Z</time>
      </trkpt>
      <trkpt lat="45.69501" lon="4.5499">
        <ele>783</ele>
        <time>2019-07-29T10:52:56Z</time>
      </trkpt>
      <trkpt lat="45.69529" lon="4.54991">
        <ele>784</ele>
        <time>2019-07-29T10:53:02Z</time>
      </trkpt>
      <trkpt lat="45.69559" lon="4.54978">
        <ele>789</ele>
        <time>2019-07-29T10:53:10Z</time>
      </trkpt>
      <trkpt lat="45.69608" lon="4.54966">
        <ele>794</ele>
        <time>2019-07-29T10:53:21Z</time>
      </trkpt>
      <trkpt lat="45.69654" lon="4.54962">
        <ele>796</ele>
        <time>2019-07-29T10:53:32Z</time>
      </trkpt>
      <trkpt lat="45.69676" lon="4.54968">
        <ele>797</ele>
        <time>2019-07-29T10:53:37Z</time>
      </trkpt>
      <trkpt lat="45.69682" lon="4.54973">
        <ele>797</ele>
        <time>2019-07-29T10:53:39Z</time>
      </trkpt>
      <trkpt lat="45.69688" lon="4.54981">
        <ele>797</ele>
        <time>2019-07-29T10:53:41Z</time>
      </trkpt>
      <trkpt lat="45.69694" lon="4.54996">
        <ele>797</ele>
        <time>2019-07-29T10:53:44Z</time>
      </trkpt>
      <trkpt lat="45.69709" lon="4.55009">
        <ele>800</ele>
        <time>2019-07-29T10:53:48Z</time>
      </trkpt>
      <trkpt lat="45.69719" lon="4.55">
        <ele>801</ele>
        <time>2019-07-29T10:53:51Z</time>
      </trkpt>
      <trkpt lat="45.69759" lon="4.54946">
        <ele>807</ele>
        <time>2019-07-29T10:54:03Z</time>
      </trkpt>
      <trkpt lat="45.69781" lon="4.54893">
        <ele>811</ele>
        <time>2019-07-29T10:54:13Z</time>
      </trkpt>
      <trkpt lat="45.69811" lon="4.54862">
        <ele>816</ele>
        <time>2019-07-29T10:54:22Z</time>
      </trkpt>
      <trkpt lat="45.69825" lon="4.54838">
        <ele>817</ele>
        <time>2019-07-29T10:54:27Z</time>
      </trkpt>
      <trkpt lat="45.69839" lon="4.54804">
        <ele>819</ele>
        <time>2019-07-29T10:54:34Z</time>
      </trkpt>
      <trkpt lat="45.69831" lon="4.54771">
        <ele>819</ele>
        <time>2019-07-29T10:54:39Z</time>
      </trkpt>
      <trkpt lat="45.6984" lon="4.54762">
        <ele>819</ele>
        <time>2019-07-29T10:54:42Z</time>
      </trkpt>
      <trkpt lat="45.69852" lon="4.54759">
        <ele>819</ele>
        <time>2019-07-29T10:54:45Z</time>
      </trkpt>
      <trkpt lat="45.69886" lon="4.54661">
        <ele>818</ele>
        <time>2019-07-29T10:55:03Z</time>
      </trkpt>
      <trkpt lat="45.6989" lon="4.54636">
        <ele>818</ele>
        <time>2019-07-29T10:55:07Z</time>
      </trkpt>
      <trkpt lat="45.69892" lon="4.54545">
        <ele>816</ele>
        <time>2019-07-29T10:55:22Z</time>
      </trkpt>
      <trkpt lat="45.69928" lon="4.54439">
        <ele>816</ele>
        <time>2019-07-29T10:55:41Z</time>
      </trkpt>
      <trkpt lat="45.69953" lon="4.5441">
        <ele>814</ele>
        <time>2019-07-29T10:55:48Z</time>
      </trkpt>
      <trkpt lat="45.69966" lon="4.54402">
        <ele>814</ele>
        <time>2019-07-29T10:55:52Z</time>
      </trkpt>
      <trkpt lat="45.69991" lon="4.54441">
        <ele>812</ele>
        <time>2019-07-29T10:56:00Z</time>
      </trkpt>
      <trkpt lat="45.69996" lon="4.54463">
        <ele>812</ele>
        <time>2019-07-29T10:56:04Z</time>
      </trkpt>
      <trkpt lat="45.70005" lon="4.54485">
        <ele>811</ele>
        <time>2019-07-29T10:56:08Z</time>
      </trkpt>
      <trkpt lat="45.70026" lon="4.54513">
        <ele>808</ele>
        <time>2019-07-29T10:56:15Z</time>
      </trkpt>
      <trkpt lat="45.70072" lon="4.54552">
        <ele>801</ele>
        <time>2019-07-29T10:56:27Z</time>
      </trkpt>
      <trkpt lat="45.70089" lon="4.54574">
        <ele>800</ele>
        <time>2019-07-29T10:56:33Z</time>
      </trkpt>
      <trkpt lat="45.70102" lon="4.546">
        <ele>798</ele>
        <time>2019-07-29T10:56:38Z</time>
      </trkpt>
      <trkpt lat="45.70114" lon="4.5466">
        <ele>797</ele>
        <time>2019-07-29T10:56:48Z</time>
      </trkpt>
      <trkpt lat="45.70119" lon="4.54671">
        <ele>796</ele>
        <time>2019-07-29T10:56:50Z</time>
      </trkpt>
      <trkpt lat="45.70125" lon="4.54678">
        <ele>796</ele>
        <time>2019-07-29T10:56:52Z</time>
      </trkpt>
      <trkpt lat="45.70138" lon="4.54685">
        <ele>794</ele>
        <time>2019-07-29T10:56:55Z</time>
      </trkpt>
      <trkpt lat="45.70151" lon="4.54688">
        <ele>792</ele>
        <time>2019-07-29T10:56:58Z</time>
      </trkpt>
      <trkpt lat="45.70161" lon="4.54681">
        <ele>790</ele>
        <time>2019-07-29T10:57:01Z</time>
      </trkpt>
      <trkpt lat="45.70163" lon="4.54665">
        <ele>789</ele>
        <time>2019-07-29T10:57:04Z</time>
      </trkpt>
      <trkpt lat="45.70159" lon="4.54635">
        <ele>789</ele>
        <time>2019-07-29T10:57:09Z</time>
      </trkpt>
      <trkpt lat="45.70161" lon="4.54626">
        <ele>789</ele>
        <time>2019-07-29T10:57:10Z</time>
      </trkpt>
      <trkpt lat="45.7017" lon="4.54619">
        <ele>788</ele>
        <time>2019-07-29T10:57:13Z</time>
      </trkpt>
      <trkpt lat="45.70183" lon="4.54626">
        <ele>788</ele>
        <time>2019-07-29T10:57:16Z</time>
      </trkpt>
      <trkpt lat="45.70208" lon="4.54658">
        <ele>789</ele>
        <time>2019-07-29T10:57:24Z</time>
      </trkpt>
      <trkpt lat="45.70214" lon="4.54658">
        <ele>789</ele>
        <time>2019-07-29T10:57:25Z</time>
      </trkpt>
      <trkpt lat="45.70225" lon="4.54646">
        <ele>788</ele>
        <time>2019-07-29T10:57:28Z</time>
      </trkpt>
      <trkpt lat="45.70241" lon="4.54573">
        <ele>784</ele>
        <time>2019-07-29T10:57:41Z</time>
      </trkpt>
      <trkpt lat="45.70258" lon="4.54542">
        <ele>781</ele>
        <time>2019-07-29T10:57:47Z</time>
      </trkpt>
      <trkpt lat="45.70324" lon="4.54471">
        <ele>779</ele>
        <time>2019-07-29T10:58:06Z</time>
      </trkpt>
      <trkpt lat="45.70345" lon="4.5446">
        <ele>779</ele>
        <time>2019-07-29T10:58:12Z</time>
      </trkpt>
      <trkpt lat="45.70357" lon="4.54443">
        <ele>779</ele>
        <time>2019-07-29T10:58:16Z</time>
      </trkpt>
      <trkpt lat="45.70376" lon="4.54399">
        <ele>779</ele>
        <time>2019-07-29T10:58:24Z</time>
      </trkpt>
      <trkpt lat="45.70378" lon="4.54384">
        <ele>779</ele>
        <time>2019-07-29T10:58:27Z</time>
      </trkpt>
      <trkpt lat="45.70365" lon="4.54381">
        <ele>778</ele>
        <time>2019-07-29T10:58:30Z</time>
      </trkpt>
      <trkpt lat="45.70314" lon="4.5435">
        <ele>774</ele>
        <time>2019-07-29T10:58:43Z</time>
      </trkpt>
      <trkpt lat="45.70301" lon="4.54336">
        <ele>774</ele>
        <time>2019-07-29T10:58:46Z</time>
      </trkpt>
      <trkpt lat="45.70289" lon="4.54318">
        <ele>774</ele>
        <time>2019-07-29T10:58:50Z</time>
      </trkpt>
      <trkpt lat="45.70279" lon="4.54289">
        <ele>774</ele>
        <time>2019-07-29T10:58:56Z</time>
      </trkpt>
      <trkpt lat="45.70254" lon="4.54191">
        <ele>775</ele>
        <time>2019-07-29T10:59:13Z</time>
      </trkpt>
      <trkpt lat="45.70197" lon="4.54118">
        <ele>784</ele>
        <time>2019-07-29T10:59:31Z</time>
      </trkpt>
      <trkpt lat="45.70131" lon="4.54073">
        <ele>787</ele>
        <time>2019-07-29T10:59:48Z</time>
      </trkpt>
      <trkpt lat="45.70094" lon="4.54054">
        <ele>784</ele>
        <time>2019-07-29T10:59:57Z</time>
      </trkpt>
      <trkpt lat="45.70068" lon="4.54019">
        <ele>781</ele>
        <time>2019-07-29T11:00:05Z</time>
      </trkpt>
      <trkpt lat="45.70039" lon="4.53958">
        <ele>774</ele>
        <time>2019-07-29T11:00:17Z</time>
      </trkpt>
      <trkpt lat="45.70027" lon="4.53946">
        <ele>771</ele>
        <time>2019-07-29T11:00:21Z</time>
      </trkpt>
      <trkpt lat="45.70002" lon="4.53931">
        <ele>766</ele>
        <time>2019-07-29T11:00:27Z</time>
      </trkpt>
      <trkpt lat="45.69944" lon="4.53906">
        <ele>759</ele>
        <time>2019-07-29T11:00:41Z</time>
      </trkpt>
      <trkpt lat="45.69911" lon="4.53902">
        <ele>756</ele>
        <time>2019-07-29T11:00:49Z</time>
      </trkpt>
      <trkpt lat="45.6988" lon="4.53894">
        <ele>750</ele>
        <time>2019-07-29T11:00:56Z</time>
      </trkpt>
      <trkpt lat="45.69853" lon="4.5389">
        <ele>747</ele>
        <time>2019-07-29T11:01:03Z</time>
      </trkpt>
      <trkpt lat="45.69787" lon="4.53919">
        <ele>744</ele>
        <time>2019-07-29T11:01:19Z</time>
      </trkpt>
      <trkpt lat="45.69727" lon="4.53969">
        <ele>744</ele>
        <time>2019-07-29T11:01:35Z</time>
      </trkpt>
      <trkpt lat="45.69702" lon="4.53985">
        <ele>746</ele>
        <time>2019-07-29T11:01:41Z</time>
      </trkpt>
      <trkpt lat="45.6969" lon="4.5398">
        <ele>746</ele>
        <time>2019-07-29T11:01:44Z</time>
      </trkpt>
      <trkpt lat="45.6969" lon="4.53941">
        <ele>745</ele>
        <time>2019-07-29T11:01:51Z</time>
      </trkpt>
      <trkpt lat="45.69683" lon="4.53924">
        <ele>745</ele>
        <time>2019-07-29T11:01:54Z</time>
      </trkpt>
      <trkpt lat="45.69677" lon="4.53916">
        <ele>746</ele>
        <time>2019-07-29T11:01:56Z</time>
      </trkpt>
      <trkpt lat="45.69657" lon="4.53896">
        <ele>748</ele>
        <time>2019-07-29T11:02:01Z</time>
      </trkpt>
      <trkpt lat="45.69606" lon="4.53836">
        <ele>755</ele>
        <time>2019-07-29T11:02:17Z</time>
      </trkpt>
      <trkpt lat="45.69581" lon="4.53823">
        <ele>757</ele>
        <time>2019-07-29T11:02:23Z</time>
      </trkpt>
      <trkpt lat="45.69544" lon="4.53809">
        <ele>762</ele>
        <time>2019-07-29T11:02:32Z</time>
      </trkpt>
      <trkpt lat="45.69538" lon="4.53802">
        <ele>763</ele>
        <time>2019-07-29T11:02:34Z</time>
      </trkpt>
      <trkpt lat="45.69509" lon="4.53711">
        <ele>763</ele>
        <time>2019-07-29T11:02:50Z</time>
      </trkpt>
      <trkpt lat="45.69499" lon="4.53686">
        <ele>764</ele>
        <time>2019-07-29T11:02:55Z</time>
      </trkpt>
      <trkpt lat="45.69491" lon="4.53693">
        <ele>764</ele>
        <time>2019-07-29T11:02:57Z</time>
      </trkpt>
      <trkpt lat="45.69477" lon="4.53725">
        <ele>765</ele>
        <time>2019-07-29T11:03:03Z</time>
      </trkpt>
      <trkpt lat="45.69459" lon="4.53749">
        <ele>768</ele>
        <time>2019-07-29T11:03:09Z</time>
      </trkpt>
      <trkpt lat="45.6944" lon="4.53767">
        <ele>771</ele>
        <time>2019-07-29T11:03:14Z</time>
      </trkpt>
      <trkpt lat="45.69412" lon="4.53778">
        <ele>774</ele>
        <time>2019-07-29T11:03:21Z</time>
      </trkpt>
      <trkpt lat="45.69321" lon="4.53773">
        <ele>777</ele>
        <time>2019-07-29T11:03:42Z</time>
      </trkpt>
      <trkpt lat="45.69242" lon="4.53774">
        <ele>781</ele>
        <time>2019-07-29T11:04:01Z</time>
      </trkpt>
      <trkpt lat="45.692" lon="4.53772">
        <ele>783</ele>
        <time>2019-07-29T11:04:10Z</time>
      </trkpt>
      <trkpt lat="45.69181" lon="4.53778">
        <ele>784</ele>
        <time>2019-07-29T11:04:15Z</time>
      </trkpt>
      <trkpt lat="45.69172" lon="4.53776">
        <ele>784</ele>
        <time>2019-07-29T11:04:17Z</time>
      </trkpt>
      <trkpt lat="45.69114" lon="4.53722">
        <ele>782</ele>
        <time>2019-07-29T11:04:33Z</time>
      </trkpt>
      <trkpt lat="45.69069" lon="4.53676">
        <ele>782</ele>
        <time>2019-07-29T11:04:46Z</time>
      </trkpt>
      <trkpt lat="45.68951" lon="4.5355">
        <ele>781</ele>
        <time>2019-07-29T11:05:21Z</time>
      </trkpt>
      <trkpt lat="45.68903" lon="4.53507">
        <ele>784</ele>
        <time>2019-07-29T11:05:34Z</time>
      </trkpt>
      <trkpt lat="45.68871" lon="4.53489">
        <ele>786</ele>
        <time>2019-07-29T11:05:42Z</time>
      </trkpt>
      <trkpt lat="45.68806" lon="4.53465">
        <ele>789</ele>
        <time>2019-07-29T11:05:58Z</time>
      </trkpt>
      <trkpt lat="45.68757" lon="4.53426">
        <ele>790</ele>
        <time>2019-07-29T11:06:11Z</time>
      </trkpt>
      <trkpt lat="45.68656" lon="4.53289">
        <ele>796</ele>
        <time>2019-07-29T11:06:43Z</time>
      </trkpt>
      <trkpt lat="45.68628" lon="4.53256">
        <ele>796</ele>
        <time>2019-07-29T11:06:52Z</time>
      </trkpt>
      <trkpt lat="45.68589" lon="4.53196">
        <ele>795</ele>
        <time>2019-07-29T11:07:05Z</time>
      </trkpt>
      <trkpt lat="45.68548" lon="4.53098">
        <ele>791</ele>
        <time>2019-07-29T11:07:24Z</time>
      </trkpt>
      <trkpt lat="45.68544" lon="4.53082">
        <ele>791</ele>
        <time>2019-07-29T11:07:26Z</time>
      </trkpt>
      <trkpt lat="45.68545" lon="4.53078">
        <ele>791</ele>
        <time>2019-07-29T11:07:27Z</time>
      </trkpt>
      <trkpt lat="45.68571" lon="4.53064">
        <ele>791</ele>
        <time>2019-07-29T11:07:34Z</time>
      </trkpt>
      <trkpt lat="45.6859" lon="4.53007">
        <ele>791</ele>
        <time>2019-07-29T11:07:44Z</time>
      </trkpt>
      <trkpt lat="45.68603" lon="4.52929">
        <ele>791</ele>
        <time>2019-07-29T11:07:57Z</time>
      </trkpt>
      <trkpt lat="45.68615" lon="4.52887">
        <ele>792</ele>
        <time>2019-07-29T11:08:04Z</time>
      </trkpt>
      <trkpt lat="45.68624" lon="4.52865">
        <ele>793</ele>
        <time>2019-07-29T11:08:08Z</time>
      </trkpt>
      <trkpt lat="45.68672" lon="4.52786">
        <ele>793</ele>
        <time>2019-07-29T11:08:26Z</time>
      </trkpt>
      <trkpt lat="45.68704" lon="4.52723">
        <ele>795</ele>
        <time>2019-07-29T11:08:38Z</time>
      </trkpt>
      <trkpt lat="45.68712" lon="4.52699">
        <ele>796</ele>
        <time>2019-07-29T11:08:43Z</time>
      </trkpt>
      <trkpt lat="45.68717" lon="4.52658">
        <ele>798</ele>
        <time>2019-07-29T11:08:49Z</time>
      </trkpt>
      <trkpt lat="45.68717" lon="4.52632">
        <ele>800</ele>
        <time>2019-07-29T11:08:54Z</time>
      </trkpt>
      <trkpt lat="45.68714" lon="4.52611">
        <ele>802</ele>
        <time>2019-07-29T11:08:57Z</time>
      </trkpt>
      <trkpt lat="45.68715" lon="4.52565">
        <ele>805</ele>
        <time>2019-07-29T11:09:05Z</time>
      </trkpt>
      <trkpt lat="45.68719" lon="4.52526">
        <ele>805</ele>
        <time>2019-07-29T11:09:11Z</time>
      </trkpt>
      <trkpt lat="45.68718" lon="4.52497">
        <ele>806</ele>
        <time>2019-07-29T11:09:16Z</time>
      </trkpt>
      <trkpt lat="45.68713" lon="4.52459">
        <ele>802</ele>
        <time>2019-07-29T11:09:22Z</time>
      </trkpt>
      <trkpt lat="45.68698" lon="4.52458">
        <ele>800</ele>
        <time>2019-07-29T11:09:26Z</time>
      </trkpt>
      <trkpt lat="45.68576" lon="4.52501">
        <ele>805</ele>
        <time>2019-07-29T11:09:55Z</time>
      </trkpt>
      <trkpt lat="45.68536" lon="4.52512">
        <ele>807</ele>
        <time>2019-07-29T11:10:04Z</time>
      </trkpt>
      <trkpt lat="45.68472" lon="4.52553">
        <ele>807</ele>
        <time>2019-07-29T11:10:21Z</time>
      </trkpt>
      <trkpt lat="45.68457" lon="4.52551">
        <ele>806</ele>
        <time>2019-07-29T11:10:24Z</time>
      </trkpt>
      <trkpt lat="45.68449" lon="4.52579">
        <ele>804</ele>
        <time>2019-07-29T11:10:29Z</time>
      </trkpt>
      <trkpt lat="45.68445" lon="4.52644">
        <ele>803</ele>
        <time>2019-07-29T11:10:40Z</time>
      </trkpt>
      <trkpt lat="45.68442" lon="4.52657">
        <ele>802</ele>
        <time>2019-07-29T11:10:42Z</time>
      </trkpt>
      <trkpt lat="45.68395" lon="4.52656">
        <ele>797</ele>
        <time>2019-07-29T11:10:53Z</time>
      </trkpt>
      <trkpt lat="45.68387" lon="4.52651">
        <ele>797</ele>
        <time>2019-07-29T11:10:55Z</time>
      </trkpt>
      <trkpt lat="45.68385" lon="4.52634">
        <ele>797</ele>
        <time>2019-07-29T11:10:58Z</time>
      </trkpt>
      <trkpt lat="45.68396" lon="4.52605">
        <ele>799</ele>
        <time>2019-07-29T11:11:03Z</time>
      </trkpt>
      <trkpt lat="45.68398" lon="4.52571">
        <ele>801</ele>
        <time>2019-07-29T11:11:09Z</time>
      </trkpt>
      <trkpt lat="45.68382" lon="4.5256">
        <ele>801</ele>
        <time>2019-07-29T11:11:13Z</time>
      </trkpt>
      <trkpt lat="45.68375" lon="4.52551">
        <ele>802</ele>
        <time>2019-07-29T11:11:15Z</time>
      </trkpt>
      <trkpt lat="45.68373" lon="4.52536">
        <ele>803</ele>
        <time>2019-07-29T11:11:18Z</time>
      </trkpt>
      <trkpt lat="45.68362" lon="4.52537">
        <ele>802</ele>
        <time>2019-07-29T11:11:20Z</time>
      </trkpt>
      <trkpt lat="45.68353" lon="4.52529">
        <ele>802</ele>
        <time>2019-07-29T11:11:23Z</time>
      </trkpt>
      <trkpt lat="45.68356" lon="4.52513">
        <ele>803</ele>
        <time>2019-07-29T11:11:26Z</time>
      </trkpt>
      <trkpt lat="45.6835" lon="4.52489">
        <ele>805</ele>
        <time>2019-07-29T11:11:30Z</time>
      </trkpt>
      <trkpt lat="45.68389" lon="4.52431">
        <ele>812</ele>
        <time>2019-07-29T11:11:43Z</time>
      </trkpt>
      <trkpt lat="45.68389" lon="4.52418">
        <ele>814</ele>
        <time>2019-07-29T11:11:45Z</time>
      </trkpt>
      <trkpt lat="45.68374" lon="4.52382">
        <ele>814</ele>
        <time>2019-07-29T11:11:52Z</time>
      </trkpt>
      <trkpt lat="45.6836" lon="4.52333">
        <ele>815</ele>
        <time>2019-07-29T11:12:00Z</time>
      </trkpt>
      <trkpt lat="45.68356" lon="4.52294">
        <ele>818</ele>
        <time>2019-07-29T11:12:07Z</time>
      </trkpt>
      <trkpt lat="45.68368" lon="4.52207">
        <ele>825</ele>
        <time>2019-07-29T11:12:21Z</time>
      </trkpt>
      <trkpt lat="45.68369" lon="4.5214">
        <ele>828</ele>
        <time>2019-07-29T11:12:32Z</time>
      </trkpt>
      <trkpt lat="45.68355" lon="4.52039">
        <ele>835</ele>
        <time>2019-07-29T11:12:49Z</time>
      </trkpt>
      <trkpt lat="45.68357" lon="4.51986">
        <ele>841</ele>
        <time>2019-07-29T11:12:58Z</time>
      </trkpt>
      <trkpt lat="45.6835" lon="4.51938">
        <ele>844</ele>
        <time>2019-07-29T11:13:06Z</time>
      </trkpt>
      <trkpt lat="45.68349" lon="4.51884">
        <ele>845</ele>
        <time>2019-07-29T11:13:15Z</time>
      </trkpt>
      <trkpt lat="45.68339" lon="4.51736">
        <ele>851</ele>
        <time>2019-07-29T11:13:39Z</time>
      </trkpt>
      <trkpt lat="45.68329" lon="4.51692">
        <ele>854</ele>
        <time>2019-07-29T11:13:46Z</time>
      </trkpt>
      <trkpt lat="45.68288" lon="4.51581">
        <ele>860</ele>
        <time>2019-07-29T11:14:07Z</time>
      </trkpt>
      <trkpt lat="45.68278" lon="4.51537">
        <ele>859</ele>
        <time>2019-07-29T11:14:14Z</time>
      </trkpt>
      <trkpt lat="45.6827" lon="4.51438">
        <ele>859</ele>
        <time>2019-07-29T11:14:31Z</time>
      </trkpt>
      <trkpt lat="45.68246" lon="4.51347">
        <ele>862</ele>
        <time>2019-07-29T11:14:47Z</time>
      </trkpt>
      <trkpt lat="45.68235" lon="4.51294">
        <ele>865</ele>
        <time>2019-07-29T11:14:56Z</time>
      </trkpt>
      <trkpt lat="45.68229" lon="4.51275">
        <ele>866</ele>
        <time>2019-07-29T11:14:59Z</time>
      </trkpt>
      <trkpt lat="45.68214" lon="4.51255">
        <ele>867</ele>
        <time>2019-07-29T11:15:04Z</time>
      </trkpt>
      <trkpt lat="45.68201" lon="4.51227">
        <ele>868</ele>
        <time>2019-07-29T11:15:09Z</time>
      </trkpt>
      <trkpt lat="45.68112" lon="4.5111">
        <ele>874</ele>
        <time>2019-07-29T11:15:37Z</time>
      </trkpt>
      <trkpt lat="45.68099" lon="4.51096">
        <ele>876</ele>
        <time>2019-07-29T11:15:41Z</time>
      </trkpt>
      <trkpt lat="45.68049" lon="4.51061">
        <ele>877</ele>
        <time>2019-07-29T11:15:54Z</time>
      </trkpt>
      <trkpt lat="45.68031" lon="4.51043">
        <ele>878</ele>
        <time>2019-07-29T11:15:59Z</time>
      </trkpt>
      <trkpt lat="45.68024" lon="4.51029">
        <ele>880</ele>
        <time>2019-07-29T11:16:02Z</time>
      </trkpt>
      <trkpt lat="45.68012" lon="4.51004">
        <ele>883</ele>
        <time>2019-07-29T11:16:07Z</time>
      </trkpt>
      <trkpt lat="45.67998" lon="4.50964">
        <ele>886</ele>
        <time>2019-07-29T11:16:14Z</time>
      </trkpt>
      <trkpt lat="45.67949" lon="4.50739">
        <ele>894</ele>
        <time>2019-07-29T11:16:53Z</time>
      </trkpt>
      <trkpt lat="45.67935" lon="4.50693">
        <ele>896</ele>
        <time>2019-07-29T11:17:01Z</time>
      </trkpt>
      <trkpt lat="45.67916" lon="4.50653">
        <ele>899</ele>
        <time>2019-07-29T11:17:09Z</time>
      </trkpt>
      <trkpt lat="45.67904" lon="4.50637">
        <ele>900</ele>
        <time>2019-07-29T11:17:13Z</time>
      </trkpt>
      <trkpt lat="45.67873" lon="4.50614">
        <ele>901</ele>
        <time>2019-07-29T11:17:21Z</time>
      </trkpt>
      <trkpt lat="45.67766" lon="4.50563">
        <ele>902</ele>
        <time>2019-07-29T11:17:47Z</time>
      </trkpt>
      <trkpt lat="45.67717" lon="4.50529">
        <ele>899</ele>
        <time>2019-07-29T11:18:00Z</time>
      </trkpt>
      <trkpt lat="45.67647" lon="4.50418">
        <ele>894</ele>
        <time>2019-07-29T11:18:24Z</time>
      </trkpt>
      <trkpt lat="45.6763" lon="4.50384">
        <ele>891</ele>
        <time>2019-07-29T11:18:31Z</time>
      </trkpt>
      <trkpt lat="45.67617" lon="4.50351">
        <ele>888</ele>
        <time>2019-07-29T11:18:37Z</time>
      </trkpt>
      <trkpt lat="45.67608" lon="4.5032">
        <ele>886</ele>
        <time>2019-07-29T11:18:43Z</time>
      </trkpt>
      <trkpt lat="45.67591" lon="4.50276">
        <ele>882</ele>
        <time>2019-07-29T11:18:51Z</time>
      </trkpt>
      <trkpt lat="45.67581" lon="4.50257">
        <ele>881</ele>
        <time>2019-07-29T11:18:55Z</time>
      </trkpt>
      <trkpt lat="45.67574" lon="4.50234">
        <ele>879</ele>
        <time>2019-07-29T11:18:59Z</time>
      </trkpt>
      <trkpt lat="45.67554" lon="4.50114">
        <ele>873</ele>
        <time>2019-07-29T11:19:19Z</time>
      </trkpt>
      <trkpt lat="45.6755" lon="4.50047">
        <ele>868</ele>
        <time>2019-07-29T11:19:30Z</time>
      </trkpt>
      <trkpt lat="45.67552" lon="4.50015">
        <ele>865</ele>
        <time>2019-07-29T11:19:35Z</time>
      </trkpt>
      <trkpt lat="45.6756" lon="4.49977">
        <ele>860</ele>
        <time>2019-07-29T11:19:42Z</time>
      </trkpt>
      <trkpt lat="45.67561" lon="4.49933">
        <ele>856</ele>
        <time>2019-07-29T11:19:49Z</time>
      </trkpt>
      <trkpt lat="45.67555" lon="4.4984">
        <ele>853</ele>
        <time>2019-07-29T11:20:04Z</time>
      </trkpt>
      <trkpt lat="45.67555" lon="4.49791">
        <ele>854</ele>
        <time>2019-07-29T11:20:12Z</time>
      </trkpt>
      <trkpt lat="45.67549" lon="4.49765">
        <ele>857</ele>
        <time>2019-07-29T11:20:17Z</time>
      </trkpt>
      <trkpt lat="45.67535" lon="4.4967">
        <ele>855</ele>
        <time>2019-07-29T11:20:33Z</time>
      </trkpt>
      <trkpt lat="45.6752" lon="4.49639">
        <ele>855</ele>
        <time>2019-07-29T11:20:39Z</time>
      </trkpt>
      <trkpt lat="45.67497" lon="4.49611">
        <ele>855</ele>
        <time>2019-07-29T11:20:46Z</time>
      </trkpt>
      <trkpt lat="45.67468" lon="4.49591">
        <ele>852</ele>
        <time>2019-07-29T11:20:53Z</time>
      </trkpt>
      <trkpt lat="45.6741" lon="4.49599">
        <ele>854</ele>
        <time>2019-07-29T11:21:07Z</time>
      </trkpt>
      <trkpt lat="45.67396" lon="4.49607">
        <ele>852</ele>
        <time>2019-07-29T11:21:10Z</time>
      </trkpt>
      <trkpt lat="45.6733" lon="4.49686">
        <ele>846</ele>
        <time>2019-07-29T11:21:31Z</time>
      </trkpt>
      <trkpt lat="45.67309" lon="4.49724">
        <ele>844</ele>
        <time>2019-07-29T11:21:38Z</time>
      </trkpt>
      <trkpt lat="45.67302" lon="4.49742">
        <ele>844</ele>
        <time>2019-07-29T11:21:42Z</time>
      </trkpt>
      <trkpt lat="45.67296" lon="4.49774">
        <ele>844</ele>
        <time>2019-07-29T11:21:47Z</time>
      </trkpt>
      <trkpt lat="45.67293" lon="4.49776">
        <ele>843</ele>
        <time>2019-07-29T11:21:48Z</time>
      </trkpt>
      <trkpt lat="45.67276" lon="4.49766">
        <ele>837</ele>
        <time>2019-07-29T11:21:52Z</time>
      </trkpt>
      <trkpt lat="45.67266" lon="4.49763">
        <ele>834</ele>
        <time>2019-07-29T11:21:55Z</time>
      </trkpt>
      <trkpt lat="45.67207" lon="4.49764">
        <ele>830</ele>
        <time>2019-07-29T11:22:08Z</time>
      </trkpt>
      <trkpt lat="45.6719" lon="4.49752">
        <ele>830</ele>
        <time>2019-07-29T11:22:13Z</time>
      </trkpt>
      <trkpt lat="45.67135" lon="4.49748">
        <ele>830</ele>
        <time>2019-07-29T11:22:26Z</time>
      </trkpt>
      <trkpt lat="45.67074" lon="4.49754">
        <ele>828</ele>
        <time>2019-07-29T11:22:40Z</time>
      </trkpt>
      <trkpt lat="45.67041" lon="4.49766">
        <ele>824</ele>
        <time>2019-07-29T11:22:48Z</time>
      </trkpt>
      <trkpt lat="45.67007" lon="4.49787">
        <ele>823</ele>
        <time>2019-07-29T11:22:57Z</time>
      </trkpt>
      <trkpt lat="45.66942" lon="4.49852">
        <ele>814</ele>
        <time>2019-07-29T11:23:15Z</time>
      </trkpt>
      <trkpt lat="45.66931" lon="4.49869">
        <ele>812</ele>
        <time>2019-07-29T11:23:19Z</time>
      </trkpt>
      <trkpt lat="45.66889" lon="4.49911">
        <ele>801</ele>
        <time>2019-07-29T11:23:31Z</time>
      </trkpt>
      <trkpt lat="45.66864" lon="4.49969">
        <ele>792</ele>
        <time>2019-07-29T11:23:42Z</time>
      </trkpt>
      <trkpt lat="45.66839" lon="4.50037">
        <ele>784</ele>
        <time>2019-07-29T11:23:55Z</time>
      </trkpt>
      <trkpt lat="45.66802" lon="4.50152">
        <ele>784</ele>
        <time>2019-07-29T11:24:15Z</time>
      </trkpt>
      <trkpt lat="45.66769" lon="4.5021">
        <ele>784</ele>
        <time>2019-07-29T11:24:27Z</time>
      </trkpt>
      <trkpt lat="45.66748" lon="4.50219">
        <ele>782</ele>
        <time>2019-07-29T11:24:33Z</time>
      </trkpt>
      <trkpt lat="45.66714" lon="4.50214">
        <ele>782</ele>
        <time>2019-07-29T11:24:41Z</time>
      </trkpt>
      <trkpt lat="45.66658" lon="4.50211">
        <ele>783</ele>
        <time>2019-07-29T11:24:54Z</time>
      </trkpt>
      <trkpt lat="45.66625" lon="4.50216">
        <ele>784</ele>
        <time>2019-07-29T11:25:01Z</time>
      </trkpt>
      <trkpt lat="45.66589" lon="4.50233">
        <ele>787</ele>
        <time>2019-07-29T11:25:10Z</time>
      </trkpt>
      <trkpt lat="45.66568" lon="4.50246">
        <ele>788</ele>
        <time>2019-07-29T11:25:16Z</time>
      </trkpt>
      <trkpt lat="45.66538" lon="4.50256">
        <ele>787</ele>
        <time>2019-07-29T11:25:23Z</time>
      </trkpt>
      <trkpt lat="45.66513" lon="4.50271">
        <ele>787</ele>
        <time>2019-07-29T11:25:29Z</time>
      </trkpt>
      <trkpt lat="45.66494" lon="4.50273">
        <ele>785</ele>
        <time>2019-07-29T11:25:34Z</time>
      </trkpt>
      <trkpt lat="45.6644" lon="4.50252">
        <ele>781</ele>
        <time>2019-07-29T11:25:47Z</time>
      </trkpt>
      <trkpt lat="45.66394" lon="4.50196">
        <ele>773</ele>
        <time>2019-07-29T11:26:01Z</time>
      </trkpt>
      <trkpt lat="45.66364" lon="4.50151">
        <ele>769</ele>
        <time>2019-07-29T11:26:11Z</time>
      </trkpt>
      <trkpt lat="45.66334" lon="4.50095">
        <ele>768</ele>
        <time>2019-07-29T11:26:22Z</time>
      </trkpt>
      <trkpt lat="45.66322" lon="4.50079">
        <ele>767</ele>
        <time>2019-07-29T11:26:26Z</time>
      </trkpt>
      <trkpt lat="45.66309" lon="4.50064">
        <ele>766</ele>
        <time>2019-07-29T11:26:30Z</time>
      </trkpt>
      <trkpt lat="45.66231" lon="4.50001">
        <ele>766</ele>
        <time>2019-07-29T11:26:51Z</time>
      </trkpt>
      <trkpt lat="45.66218" lon="4.49986">
        <ele>766</ele>
        <time>2019-07-29T11:26:55Z</time>
      </trkpt>
      <trkpt lat="45.66183" lon="4.4992">
        <ele>765</ele>
        <time>2019-07-29T11:27:08Z</time>
      </trkpt>
      <trkpt lat="45.66142" lon="4.49899">
        <ele>763</ele>
        <time>2019-07-29T11:27:19Z</time>
      </trkpt>
      <trkpt lat="45.66126" lon="4.49899">
        <ele>763</ele>
        <time>2019-07-29T11:27:22Z</time>
      </trkpt>
      <trkpt lat="45.66123" lon="4.49892">
        <ele>763</ele>
        <time>2019-07-29T11:27:24Z</time>
      </trkpt>
      <trkpt lat="45.66134" lon="4.49863">
        <ele>761</ele>
        <time>2019-07-29T11:27:29Z</time>
      </trkpt>
      <trkpt lat="45.66153" lon="4.4983">
        <ele>760</ele>
        <time>2019-07-29T11:27:36Z</time>
      </trkpt>
      <trkpt lat="45.66149" lon="4.49719">
        <ele>754</ele>
        <time>2019-07-29T11:27:54Z</time>
      </trkpt>
      <trkpt lat="45.66141" lon="4.4965">
        <ele>748</ele>
        <time>2019-07-29T11:28:06Z</time>
      </trkpt>
      <trkpt lat="45.66131" lon="4.49617">
        <ele>743</ele>
        <time>2019-07-29T11:28:11Z</time>
      </trkpt>
      <trkpt lat="45.66118" lon="4.49594">
        <ele>740</ele>
        <time>2019-07-29T11:28:16Z</time>
      </trkpt>
      <trkpt lat="45.66108" lon="4.4957">
        <ele>737</ele>
        <time>2019-07-29T11:28:21Z</time>
      </trkpt>
      <trkpt lat="45.66089" lon="4.4951">
        <ele>731</ele>
        <time>2019-07-29T11:28:32Z</time>
      </trkpt>
      <trkpt lat="45.66037" lon="4.49411">
        <ele>722</ele>
        <time>2019-07-29T11:28:52Z</time>
      </trkpt>
      <trkpt lat="45.66004" lon="4.49341">
        <ele>721</ele>
        <time>2019-07-29T11:29:06Z</time>
      </trkpt>
      <trkpt lat="45.65999" lon="4.49322">
        <ele>721</ele>
        <time>2019-07-29T11:29:09Z</time>
      </trkpt>
      <trkpt lat="45.65996" lon="4.49292">
        <ele>722</ele>
        <time>2019-07-29T11:29:14Z</time>
      </trkpt>
      <trkpt lat="45.65979" lon="4.49253">
        <ele>723</ele>
        <time>2019-07-29T11:29:21Z</time>
      </trkpt>
      <trkpt lat="45.65919" lon="4.49189">
        <ele>723</ele>
        <time>2019-07-29T11:29:39Z</time>
      </trkpt>
      <trkpt lat="45.65869" lon="4.49153">
        <ele>720</ele>
        <time>2019-07-29T11:29:52Z</time>
      </trkpt>
      <trkpt lat="45.65828" lon="4.49127">
        <ele>719</ele>
        <time>2019-07-29T11:30:02Z</time>
      </trkpt>
      <trkpt lat="45.65803" lon="4.49118">
        <ele>717</ele>
        <time>2019-07-29T11:30:08Z</time>
      </trkpt>
      <trkpt lat="45.65784" lon="4.49097">
        <ele>715</ele>
        <time>2019-07-29T11:30:14Z</time>
      </trkpt>
      <trkpt lat="45.65769" lon="4.49091">
        <ele>714</ele>
        <time>2019-07-29T11:30:18Z</time>
      </trkpt>
      <trkpt lat="45.65766" lon="4.49087">
        <ele>714</ele>
        <time>2019-07-29T11:30:19Z</time>
      </trkpt>
      <trkpt lat="45.65746" lon="4.49023">
        <ele>712</ele>
        <time>2019-07-29T11:30:30Z</time>
      </trkpt>
      <trkpt lat="45.65742" lon="4.48919">
        <ele>709</ele>
        <time>2019-07-29T11:30:47Z</time>
      </trkpt>
      <trkpt lat="45.65745" lon="4.48876">
        <ele>708</ele>
        <time>2019-07-29T11:30:54Z</time>
      </trkpt>
      <trkpt lat="45.65757" lon="4.48823">
        <ele>707</ele>
        <time>2019-07-29T11:31:03Z</time>
      </trkpt>
      <trkpt lat="45.65759" lon="4.48795">
        <ele>707</ele>
        <time>2019-07-29T11:31:08Z</time>
      </trkpt>
      <trkpt lat="45.65743" lon="4.48745">
        <ele>704</ele>
        <time>2019-07-29T11:31:17Z</time>
      </trkpt>
      <trkpt lat="45.65739" lon="4.48723">
        <ele>704</ele>
        <time>2019-07-29T11:31:20Z</time>
      </trkpt>
      <trkpt lat="45.65727" lon="4.48691">
        <ele>703</ele>
        <time>2019-07-29T11:31:26Z</time>
      </trkpt>
      <trkpt lat="45.65713" lon="4.48642">
        <ele>703</ele>
        <time>2019-07-29T11:31:35Z</time>
      </trkpt>
      <trkpt lat="45.65712" lon="4.48611">
        <ele>705</ele>
        <time>2019-07-29T11:31:40Z</time>
      </trkpt>
      <trkpt lat="45.65715" lon="4.48527">
        <ele>707</ele>
        <time>2019-07-29T11:31:54Z</time>
      </trkpt>
      <trkpt lat="45.65712" lon="4.485">
        <ele>707</ele>
        <time>2019-07-29T11:31:58Z</time>
      </trkpt>
      <trkpt lat="45.65714" lon="4.48478">
        <ele>704</ele>
        <time>2019-07-29T11:32:02Z</time>
      </trkpt>
      <trkpt lat="45.65739" lon="4.48397">
        <ele>696</ele>
        <time>2019-07-29T11:32:16Z</time>
      </trkpt>
      <trkpt lat="45.65755" lon="4.48384">
        <ele>695</ele>
        <time>2019-07-29T11:32:21Z</time>
      </trkpt>
      <trkpt lat="45.65799" lon="4.4836">
        <ele>694</ele>
        <time>2019-07-29T11:32:32Z</time>
      </trkpt>
      <trkpt lat="45.65813" lon="4.48342">
        <ele>693</ele>
        <time>2019-07-29T11:32:36Z</time>
      </trkpt>
      <trkpt lat="45.65848" lon="4.48285">
        <ele>690</ele>
        <time>2019-07-29T11:32:48Z</time>
      </trkpt>
      <trkpt lat="45.65828" lon="4.4831">
        <ele>692</ele>
        <time>2019-07-29T11:32:55Z</time>
      </trkpt>
      <trkpt lat="45.65784" lon="4.48354">
        <ele>692</ele>
        <time>2019-07-29T11:33:07Z</time>
      </trkpt>
      <trkpt lat="45.65735" lon="4.48384">
        <ele>693</ele>
        <time>2019-07-29T11:33:20Z</time>
      </trkpt>
      <trkpt lat="45.65726" lon="4.48425">
        <ele>698</ele>
        <time>2019-07-29T11:33:27Z</time>
      </trkpt>
      <trkpt lat="45.65724" lon="4.48416">
        <ele>697</ele>
        <time>2019-07-29T11:33:28Z</time>
      </trkpt>
      <trkpt lat="45.65735" lon="4.4839">
        <ele>694</ele>
        <time>2019-07-29T11:33:33Z</time>
      </trkpt>
      <trkpt lat="45.65779" lon="4.48371">
        <ele>694</ele>
        <time>2019-07-29T11:33:44Z</time>
      </trkpt>
      <trkpt lat="45.65819" lon="4.48329">
        <ele>693</ele>
        <time>2019-07-29T11:33:55Z</time>
      </trkpt>
      <trkpt lat="45.65864" lon="4.48257">
        <ele>687</ele>
        <time>2019-07-29T11:34:11Z</time>
      </trkpt>
      <trkpt lat="45.65876" lon="4.48222">
        <ele>684</ele>
        <time>2019-07-29T11:34:18Z</time>
      </trkpt>
      <trkpt lat="45.65886" lon="4.48208">
        <ele>682</ele>
        <time>2019-07-29T11:34:21Z</time>
      </trkpt>
      <trkpt lat="45.65901" lon="4.48199">
        <ele>680</ele>
        <time>2019-07-29T11:34:25Z</time>
      </trkpt>
      <trkpt lat="45.65922" lon="4.48193">
        <ele>677</ele>
        <time>2019-07-29T11:34:30Z</time>
      </trkpt>
      <trkpt lat="45.65927" lon="4.48189">
        <ele>676</ele>
        <time>2019-07-29T11:34:31Z</time>
      </trkpt>
      <trkpt lat="45.65928" lon="4.48185">
        <ele>675</ele>
        <time>2019-07-29T11:34:32Z</time>
      </trkpt>
      <trkpt lat="45.65871" lon="4.48103">
        <ele>673</ele>
        <time>2019-07-29T11:34:51Z</time>
      </trkpt>
      <trkpt lat="45.65792" lon="4.48007">
        <ele>668</ele>
        <time>2019-07-29T11:35:15Z</time>
      </trkpt>
      <trkpt lat="45.65777" lon="4.47996">
        <ele>668</ele>
        <time>2019-07-29T11:35:19Z</time>
      </trkpt>
      <trkpt lat="45.65736" lon="4.47976">
        <ele>667</ele>
        <time>2019-07-29T11:35:29Z</time>
      </trkpt>
      <trkpt lat="45.65688" lon="4.47934">
        <ele>667</ele>
        <time>2019-07-29T11:35:42Z</time>
      </trkpt>
      <trkpt lat="45.65606" lon="4.47839">
        <ele>665</ele>
        <time>2019-07-29T11:36:07Z</time>
      </trkpt>
      <trkpt lat="45.65556" lon="4.4781">
        <ele>667</ele>
        <time>2019-07-29T11:36:19Z</time>
      </trkpt>
      <trkpt lat="45.65507" lon="4.4781">
        <ele>669</ele>
        <time>2019-07-29T11:36:31Z</time>
      </trkpt>
      <trkpt lat="45.65537" lon="4.47872">
        <ele>667</ele>
        <time>2019-07-29T11:36:43Z</time>
      </trkpt>
      <trkpt lat="45.65553" lon="4.47946">
        <ele>667</ele>
        <time>2019-07-29T11:36:56Z</time>
      </trkpt>
      <trkpt lat="45.65556" lon="4.4797">
        <ele>667</ele>
        <time>2019-07-29T11:37:00Z</time>
      </trkpt>
      <trkpt lat="45.65554" lon="4.48004">
        <ele>666</ele>
        <time>2019-07-29T11:37:05Z</time>
      </trkpt>
      <trkpt lat="45.65534" lon="4.48062">
        <ele>664</ele>
        <time>2019-07-29T11:37:16Z</time>
      </trkpt>
      <trkpt lat="45.65469" lon="4.48138">
        <ele>663</ele>
        <time>2019-07-29T11:37:35Z</time>
      </trkpt>
      <trkpt lat="45.65448" lon="4.48149">
        <ele>664</ele>
        <time>2019-07-29T11:37:41Z</time>
      </trkpt>
      <trkpt lat="45.65417" lon="4.48151">
        <ele>665</ele>
        <time>2019-07-29T11:37:48Z</time>
      </trkpt>
      <trkpt lat="45.6535" lon="4.48135">
        <ele>671</ele>
        <time>2019-07-29T11:38:04Z</time>
      </trkpt>
      <trkpt lat="45.65313" lon="4.4812">
        <ele>672</ele>
        <time>2019-07-29T11:38:13Z</time>
      </trkpt>
      <trkpt lat="45.65249" lon="4.4811">
        <ele>675</ele>
        <time>2019-07-29T11:38:28Z</time>
      </trkpt>
      <trkpt lat="45.65224" lon="4.48111">
        <ele>673</ele>
        <time>2019-07-29T11:38:33Z</time>
      </trkpt>
      <trkpt lat="45.6522" lon="4.48115">
        <ele>673</ele>
        <time>2019-07-29T11:38:35Z</time>
      </trkpt>
      <trkpt lat="45.65222" lon="4.48147">
        <ele>677</ele>
        <time>2019-07-29T11:38:40Z</time>
      </trkpt>
      <trkpt lat="45.65218" lon="4.48187">
        <ele>681</ele>
        <time>2019-07-29T11:38:46Z</time>
      </trkpt>
      <trkpt lat="45.6522" lon="4.48219">
        <ele>684</ele>
        <time>2019-07-29T11:38:52Z</time>
      </trkpt>
      <trkpt lat="45.65224" lon="4.4824">
        <ele>686</ele>
        <time>2019-07-29T11:38:55Z</time>
      </trkpt>
      <trkpt lat="45.65247" lon="4.48337">
        <ele>694</ele>
        <time>2019-07-29T11:39:12Z</time>
      </trkpt>
      <trkpt lat="45.65253" lon="4.48352">
        <ele>695</ele>
        <time>2019-07-29T11:39:15Z</time>
      </trkpt>
      <trkpt lat="45.65256" lon="4.48372">
        <ele>696</ele>
        <time>2019-07-29T11:39:18Z</time>
      </trkpt>
      <trkpt lat="45.65256" lon="4.4847">
        <ele>702</ele>
        <time>2019-07-29T11:39:34Z</time>
      </trkpt>
      <trkpt lat="45.65259" lon="4.48507">
        <ele>703</ele>
        <time>2019-07-29T11:39:40Z</time>
      </trkpt>
      <trkpt lat="45.65265" lon="4.4854">
        <ele>704</ele>
        <time>2019-07-29T11:39:46Z</time>
      </trkpt>
      <trkpt lat="45.65275" lon="4.48579">
        <ele>704</ele>
        <time>2019-07-29T11:39:53Z</time>
      </trkpt>
      <trkpt lat="45.65304" lon="4.48639">
        <ele>706</ele>
        <time>2019-07-29T11:40:04Z</time>
      </trkpt>
      <trkpt lat="45.65313" lon="4.48699">
        <ele>708</ele>
        <time>2019-07-29T11:40:15Z</time>
      </trkpt>
      <trkpt lat="45.65323" lon="4.48732">
        <ele>708</ele>
        <time>2019-07-29T11:40:20Z</time>
      </trkpt>
      <trkpt lat="45.65341" lon="4.48772">
        <ele>708</ele>
        <time>2019-07-29T11:40:28Z</time>
      </trkpt>
      <trkpt lat="45.65373" lon="4.48885">
        <ele>707</ele>
        <time>2019-07-29T11:40:48Z</time>
      </trkpt>
      <trkpt lat="45.65396" lon="4.48945">
        <ele>709</ele>
        <time>2019-07-29T11:40:59Z</time>
      </trkpt>
      <trkpt lat="45.65418" lon="4.48988">
        <ele>711</ele>
        <time>2019-07-29T11:41:08Z</time>
      </trkpt>
      <trkpt lat="45.65459" lon="4.49083">
        <ele>713</ele>
        <time>2019-07-29T11:41:26Z</time>
      </trkpt>
      <trkpt lat="45.65478" lon="4.49158">
        <ele>713</ele>
        <time>2019-07-29T11:41:39Z</time>
      </trkpt>
      <trkpt lat="45.6548" lon="4.49179">
        <ele>713</ele>
        <time>2019-07-29T11:41:43Z</time>
      </trkpt>
      <trkpt lat="45.65477" lon="4.49257">
        <ele>714</ele>
        <time>2019-07-29T11:41:55Z</time>
      </trkpt>
      <trkpt lat="45.65474" lon="4.49276">
        <ele>715</ele>
        <time>2019-07-29T11:41:59Z</time>
      </trkpt>
      <trkpt lat="45.65485" lon="4.49308">
        <ele>716</ele>
        <time>2019-07-29T11:42:04Z</time>
      </trkpt>
      <trkpt lat="45.65505" lon="4.49343">
        <ele>719</ele>
        <time>2019-07-29T11:42:12Z</time>
      </trkpt>
      <trkpt lat="45.6553" lon="4.49368">
        <ele>720</ele>
        <time>2019-07-29T11:42:19Z</time>
      </trkpt>
      <trkpt lat="45.65574" lon="4.49401">
        <ele>720</ele>
        <time>2019-07-29T11:42:30Z</time>
      </trkpt>
      <trkpt lat="45.65582" lon="4.49413">
        <ele>721</ele>
        <time>2019-07-29T11:42:33Z</time>
      </trkpt>
      <trkpt lat="45.65579" lon="4.49443">
        <ele>724</ele>
        <time>2019-07-29T11:42:38Z</time>
      </trkpt>
      <trkpt lat="45.65568" lon="4.49483">
        <ele>728</ele>
        <time>2019-07-29T11:42:45Z</time>
      </trkpt>
      <trkpt lat="45.65546" lon="4.49535">
        <ele>735</ele>
        <time>2019-07-29T11:42:55Z</time>
      </trkpt>
      <trkpt lat="45.65539" lon="4.49559">
        <ele>738</ele>
        <time>2019-07-29T11:42:59Z</time>
      </trkpt>
      <trkpt lat="45.65532" lon="4.49604">
        <ele>744</ele>
        <time>2019-07-29T11:43:07Z</time>
      </trkpt>
      <trkpt lat="45.65525" lon="4.49607">
        <ele>745</ele>
        <time>2019-07-29T11:43:09Z</time>
      </trkpt>
      <trkpt lat="45.65517" lon="4.49605">
        <ele>745</ele>
        <time>2019-07-29T11:43:10Z</time>
      </trkpt>
      <trkpt lat="45.65517" lon="4.49608">
        <ele>745</ele>
        <time>2019-07-29T11:43:11Z</time>
      </trkpt>
      <trkpt lat="45.65522" lon="4.49604">
        <ele>745</ele>
        <time>2019-07-29T11:43:12Z</time>
      </trkpt>
      <trkpt lat="45.65526" lon="4.4961">
        <ele>745</ele>
        <time>2019-07-29T11:43:14Z</time>
      </trkpt>
      <trkpt lat="45.65521" lon="4.49622">
        <ele>747</ele>
        <time>2019-07-29T11:43:16Z</time>
      </trkpt>
      <trkpt lat="45.65515" lon="4.49657">
        <ele>751</ele>
        <time>2019-07-29T11:43:22Z</time>
      </trkpt>
      <trkpt lat="45.65507" lon="4.49682">
        <ele>755</ele>
        <time>2019-07-29T11:43:26Z</time>
      </trkpt>
      <trkpt lat="45.65496" lon="4.49737">
        <ele>761</ele>
        <time>2019-07-29T11:43:36Z</time>
      </trkpt>
      <trkpt lat="45.655" lon="4.49796">
        <ele>767</ele>
        <time>2019-07-29T11:43:45Z</time>
      </trkpt>
      <trkpt lat="45.65482" lon="4.49854">
        <ele>771</ele>
        <time>2019-07-29T11:43:56Z</time>
      </trkpt>
      <trkpt lat="45.65468" lon="4.49887">
        <ele>772</ele>
        <time>2019-07-29T11:44:02Z</time>
      </trkpt>
      <trkpt lat="45.65463" lon="4.49914">
        <ele>773</ele>
        <time>2019-07-29T11:44:07Z</time>
      </trkpt>
      <trkpt lat="45.65466" lon="4.49919">
        <ele>773</ele>
        <time>2019-07-29T11:44:08Z</time>
      </trkpt>
      <trkpt lat="45.65463" lon="4.49916">
        <ele>773</ele>
        <time>2019-07-29T11:44:08Z</time>
      </trkpt>
      <trkpt lat="45.65465" lon="4.49984">
        <ele>770</ele>
        <time>2019-07-29T11:44:20Z</time>
      </trkpt>
      <trkpt lat="45.65463" lon="4.49985">
        <ele>770</ele>
        <time>2019-07-29T11:44:20Z</time>
      </trkpt>
      <trkpt lat="45.65403" lon="4.49955">
        <ele>771</ele>
        <time>2019-07-29T11:44:35Z</time>
      </trkpt>
      <trkpt lat="45.65368" lon="4.49944">
        <ele>768</ele>
        <time>2019-07-29T11:44:43Z</time>
      </trkpt>
      <trkpt lat="45.65345" lon="4.4994">
        <ele>767</ele>
        <time>2019-07-29T11:44:49Z</time>
      </trkpt>
      <trkpt lat="45.65327" lon="4.49944">
        <ele>767</ele>
        <time>2019-07-29T11:44:53Z</time>
      </trkpt>
      <trkpt lat="45.65318" lon="4.49953">
        <ele>768</ele>
        <time>2019-07-29T11:44:55Z</time>
      </trkpt>
      <trkpt lat="45.65297" lon="4.50003">
        <ele>769</ele>
        <time>2019-07-29T11:45:05Z</time>
      </trkpt>
      <trkpt lat="45.65231" lon="4.50114">
        <ele>763</ele>
        <time>2019-07-29T11:45:29Z</time>
      </trkpt>
      <trkpt lat="45.65188" lon="4.50159">
        <ele>761</ele>
        <time>2019-07-29T11:45:41Z</time>
      </trkpt>
      <trkpt lat="45.65095" lon="4.50203">
        <ele>758</ele>
        <time>2019-07-29T11:46:04Z</time>
      </trkpt>
      <trkpt lat="45.65048" lon="4.50239">
        <ele>754</ele>
        <time>2019-07-29T11:46:17Z</time>
      </trkpt>
      <trkpt lat="45.65026" lon="4.50273">
        <ele>751</ele>
        <time>2019-07-29T11:46:24Z</time>
      </trkpt>
      <trkpt lat="45.64977" lon="4.50366">
        <ele>747</ele>
        <time>2019-07-29T11:46:43Z</time>
      </trkpt>
      <trkpt lat="45.64961" lon="4.50385">
        <ele>747</ele>
        <time>2019-07-29T11:46:48Z</time>
      </trkpt>
      <trkpt lat="45.64882" lon="4.5053">
        <ele>742</ele>
        <time>2019-07-29T11:47:18Z</time>
      </trkpt>
      <trkpt lat="45.64874" lon="4.50548">
        <ele>740</ele>
        <time>2019-07-29T11:47:21Z</time>
      </trkpt>
      <trkpt lat="45.64855" lon="4.5061">
        <ele>734</ele>
        <time>2019-07-29T11:47:33Z</time>
      </trkpt>
      <trkpt lat="45.64849" lon="4.50681">
        <ele>728</ele>
        <time>2019-07-29T11:47:44Z</time>
      </trkpt>
      <trkpt lat="45.64838" lon="4.50713">
        <ele>726</ele>
        <time>2019-07-29T11:47:50Z</time>
      </trkpt>
      <trkpt lat="45.64821" lon="4.5075">
        <ele>721</ele>
        <time>2019-07-29T11:47:57Z</time>
      </trkpt>
      <trkpt lat="45.64809" lon="4.5077">
        <ele>716</ele>
        <time>2019-07-29T11:48:02Z</time>
      </trkpt>
      <trkpt lat="45.6479" lon="4.50824">
        <ele>708</ele>
        <time>2019-07-29T11:48:11Z</time>
      </trkpt>
      <trkpt lat="45.64775" lon="4.50853">
        <ele>703</ele>
        <time>2019-07-29T11:48:17Z</time>
      </trkpt>
      <trkpt lat="45.64756" lon="4.50878">
        <ele>698</ele>
        <time>2019-07-29T11:48:23Z</time>
      </trkpt>
      <trkpt lat="45.64749" lon="4.50883">
        <ele>697</ele>
        <time>2019-07-29T11:48:25Z</time>
      </trkpt>
      <trkpt lat="45.64735" lon="4.50888">
        <ele>695</ele>
        <time>2019-07-29T11:48:29Z</time>
      </trkpt>
      <trkpt lat="45.64734" lon="4.50895">
        <ele>694</ele>
        <time>2019-07-29T11:48:30Z</time>
      </trkpt>
      <trkpt lat="45.6474" lon="4.50919">
        <ele>694</ele>
        <time>2019-07-29T11:48:34Z</time>
      </trkpt>
      <trkpt lat="45.64747" lon="4.5093">
        <ele>693</ele>
        <time>2019-07-29T11:48:36Z</time>
      </trkpt>
      <trkpt lat="45.64766" lon="4.50951">
        <ele>691</ele>
        <time>2019-07-29T11:48:42Z</time>
      </trkpt>
      <trkpt lat="45.64781" lon="4.50959">
        <ele>690</ele>
        <time>2019-07-29T11:48:46Z</time>
      </trkpt>
      <trkpt lat="45.64795" lon="4.5096">
        <ele>690</ele>
        <time>2019-07-29T11:48:49Z</time>
      </trkpt>
      <trkpt lat="45.64808" lon="4.50956">
        <ele>691</ele>
        <time>2019-07-29T11:48:52Z</time>
      </trkpt>
      <trkpt lat="45.64823" lon="4.50956">
        <ele>691</ele>
        <time>2019-07-29T11:48:56Z</time>
      </trkpt>
      <trkpt lat="45.64837" lon="4.50963">
        <ele>689</ele>
        <time>2019-07-29T11:48:59Z</time>
      </trkpt>
      <trkpt lat="45.64891" lon="4.50973">
        <ele>683</ele>
        <time>2019-07-29T11:49:12Z</time>
      </trkpt>
      <trkpt lat="45.64911" lon="4.5098">
        <ele>679</ele>
        <time>2019-07-29T11:49:17Z</time>
      </trkpt>
      <trkpt lat="45.64936" lon="4.50999">
        <ele>676</ele>
        <time>2019-07-29T11:49:23Z</time>
      </trkpt>
      <trkpt lat="45.64985" lon="4.51054">
        <ele>671</ele>
        <time>2019-07-29T11:49:38Z</time>
      </trkpt>
      <trkpt lat="45.65004" lon="4.51072">
        <ele>669</ele>
        <time>2019-07-29T11:49:43Z</time>
      </trkpt>
      <trkpt lat="45.65032" lon="4.51091">
        <ele>665</ele>
        <time>2019-07-29T11:49:50Z</time>
      </trkpt>
      <trkpt lat="45.65055" lon="4.51098">
        <ele>664</ele>
        <time>2019-07-29T11:49:56Z</time>
      </trkpt>
      <trkpt lat="45.65087" lon="4.511">
        <ele>663</ele>
        <time>2019-07-29T11:50:03Z</time>
      </trkpt>
      <trkpt lat="45.65128" lon="4.51089">
        <ele>663</ele>
        <time>2019-07-29T11:50:13Z</time>
      </trkpt>
      <trkpt lat="45.65146" lon="4.51081">
        <ele>662</ele>
        <time>2019-07-29T11:50:17Z</time>
      </trkpt>
      <trkpt lat="45.65213" lon="4.51024">
        <ele>662</ele>
        <time>2019-07-29T11:50:36Z</time>
      </trkpt>
      <trkpt lat="45.65227" lon="4.51008">
        <ele>662</ele>
        <time>2019-07-29T11:50:40Z</time>
      </trkpt>
      <trkpt lat="45.65238" lon="4.51005">
        <ele>662</ele>
        <time>2019-07-29T11:50:42Z</time>
      </trkpt>
      <trkpt lat="45.65268" lon="4.51043">
        <ele>661</ele>
        <time>2019-07-29T11:50:52Z</time>
      </trkpt>
      <trkpt lat="45.65262" lon="4.51059">
        <ele>660</ele>
        <time>2019-07-29T11:50:55Z</time>
      </trkpt>
      <trkpt lat="45.65225" lon="4.51115">
        <ele>663</ele>
        <time>2019-07-29T11:51:07Z</time>
      </trkpt>
      <trkpt lat="45.65185" lon="4.51173">
        <ele>664</ele>
        <time>2019-07-29T11:51:21Z</time>
      </trkpt>
      <trkpt lat="45.65151" lon="4.51214">
        <ele>665</ele>
        <time>2019-07-29T11:51:31Z</time>
      </trkpt>
      <trkpt lat="45.65042" lon="4.51302">
        <ele>663</ele>
        <time>2019-07-29T11:52:00Z</time>
      </trkpt>
      <trkpt lat="45.65022" lon="4.51322">
        <ele>662</ele>
        <time>2019-07-29T11:52:06Z</time>
      </trkpt>
      <trkpt lat="45.64978" lon="4.51412">
        <ele>660</ele>
        <time>2019-07-29T11:52:24Z</time>
      </trkpt>
      <trkpt lat="45.64946" lon="4.5143">
        <ele>658</ele>
        <time>2019-07-29T11:52:32Z</time>
      </trkpt>
      <trkpt lat="45.64874" lon="4.51451">
        <ele>656</ele>
        <time>2019-07-29T11:52:49Z</time>
      </trkpt>
      <trkpt lat="45.64838" lon="4.51497">
        <ele>661</ele>
        <time>2019-07-29T11:53:00Z</time>
      </trkpt>
      <trkpt lat="45.6482" lon="4.51591">
        <ele>668</ele>
        <time>2019-07-29T11:53:16Z</time>
      </trkpt>
      <trkpt lat="45.64813" lon="4.51617">
        <ele>672</ele>
        <time>2019-07-29T11:53:21Z</time>
      </trkpt>
      <trkpt lat="45.64789" lon="4.51688">
        <ele>680</ele>
        <time>2019-07-29T11:53:34Z</time>
      </trkpt>
      <trkpt lat="45.64773" lon="4.51727">
        <ele>684</ele>
        <time>2019-07-29T11:53:41Z</time>
      </trkpt>
      <trkpt lat="45.64751" lon="4.5183">
        <ele>692</ele>
        <time>2019-07-29T11:53:59Z</time>
      </trkpt>
      <trkpt lat="45.64748" lon="4.51883">
        <ele>695</ele>
        <time>2019-07-29T11:54:07Z</time>
      </trkpt>
      <trkpt lat="45.64761" lon="4.5201">
        <ele>701</ele>
        <time>2019-07-29T11:54:28Z</time>
      </trkpt>
      <trkpt lat="45.64764" lon="4.52013">
        <ele>701</ele>
        <time>2019-07-29T11:54:29Z</time>
      </trkpt>
      <trkpt lat="45.64795" lon="4.52097">
        <ele>704</ele>
        <time>2019-07-29T11:54:45Z</time>
      </trkpt>
      <trkpt lat="45.6483" lon="4.52178">
        <ele>704</ele>
        <time>2019-07-29T11:55:00Z</time>
      </trkpt>
      <trkpt lat="45.64845" lon="4.52225">
        <ele>700</ele>
        <time>2019-07-29T11:55:09Z</time>
      </trkpt>
      <trkpt lat="45.64896" lon="4.52411">
        <ele>691</ele>
        <time>2019-07-29T11:55:41Z</time>
      </trkpt>
      <trkpt lat="45.64915" lon="4.52468">
        <ele>695</ele>
        <time>2019-07-29T11:55:51Z</time>
      </trkpt>
      <trkpt lat="45.64942" lon="4.52522">
        <ele>698</ele>
        <time>2019-07-29T11:56:02Z</time>
      </trkpt>
      <trkpt lat="45.64999" lon="4.52691">
        <ele>695</ele>
        <time>2019-07-29T11:56:33Z</time>
      </trkpt>
      <trkpt lat="45.65049" lon="4.52729">
        <ele>694</ele>
        <time>2019-07-29T11:56:46Z</time>
      </trkpt>
      <trkpt lat="45.65088" lon="4.52755">
        <ele>692</ele>
        <time>2019-07-29T11:56:56Z</time>
      </trkpt>
      <trkpt lat="45.6512" lon="4.52781">
        <ele>690</ele>
        <time>2019-07-29T11:57:05Z</time>
      </trkpt>
      <trkpt lat="45.65145" lon="4.52797">
        <ele>688</ele>
        <time>2019-07-29T11:57:11Z</time>
      </trkpt>
      <trkpt lat="45.65175" lon="4.52804">
        <ele>688</ele>
        <time>2019-07-29T11:57:18Z</time>
      </trkpt>
      <trkpt lat="45.65261" lon="4.5281">
        <ele>693</ele>
        <time>2019-07-29T11:57:38Z</time>
      </trkpt>
      <trkpt lat="45.65289" lon="4.52834">
        <ele>691</ele>
        <time>2019-07-29T11:57:46Z</time>
      </trkpt>
      <trkpt lat="45.65331" lon="4.52885">
        <ele>690</ele>
        <time>2019-07-29T11:57:59Z</time>
      </trkpt>
      <trkpt lat="45.65359" lon="4.52927">
        <ele>685</ele>
        <time>2019-07-29T11:58:08Z</time>
      </trkpt>
      <trkpt lat="45.65377" lon="4.52958">
        <ele>683</ele>
        <time>2019-07-29T11:58:15Z</time>
      </trkpt>
      <trkpt lat="45.65414" lon="4.53013">
        <ele>679</ele>
        <time>2019-07-29T11:58:27Z</time>
      </trkpt>
      <trkpt lat="45.6542" lon="4.53024">
        <ele>678</ele>
        <time>2019-07-29T11:58:30Z</time>
      </trkpt>
      <trkpt lat="45.65423" lon="4.53043">
        <ele>677</ele>
        <time>2019-07-29T11:58:33Z</time>
      </trkpt>
      <trkpt lat="45.65427" lon="4.53045">
        <ele>677</ele>
        <time>2019-07-29T11:58:34Z</time>
      </trkpt>
      <trkpt lat="45.65441" lon="4.53031">
        <ele>676</ele>
        <time>2019-07-29T11:58:38Z</time>
      </trkpt>
      <trkpt lat="45.65453" lon="4.53032">
        <ele>675</ele>
        <time>2019-07-29T11:58:41Z</time>
      </trkpt>
      <trkpt lat="45.65516" lon="4.53102">
        <ele>672</ele>
        <time>2019-07-29T11:58:59Z</time>
      </trkpt>
      <trkpt lat="45.65522" lon="4.53112">
        <ele>672</ele>
        <time>2019-07-29T11:59:01Z</time>
      </trkpt>
      <trkpt lat="45.65541" lon="4.5316">
        <ele>673</ele>
        <time>2019-07-29T11:59:10Z</time>
      </trkpt>
      <trkpt lat="45.6558" lon="4.5319">
        <ele>677</ele>
        <time>2019-07-29T11:59:21Z</time>
      </trkpt>
      <trkpt lat="45.65585" lon="4.53197">
        <ele>678</ele>
        <time>2019-07-29T11:59:22Z</time>
      </trkpt>
      <trkpt lat="45.65594" lon="4.53219">
        <ele>679</ele>
        <time>2019-07-29T11:59:27Z</time>
      </trkpt>
      <trkpt lat="45.65606" lon="4.53262">
        <ele>680</ele>
        <time>2019-07-29T11:59:34Z</time>
      </trkpt>
      <trkpt lat="45.6562" lon="4.53339">
        <ele>682</ele>
        <time>2019-07-29T11:59:47Z</time>
      </trkpt>
      <trkpt lat="45.65626" lon="4.53359">
        <ele>683</ele>
        <time>2019-07-29T11:59:51Z</time>
      </trkpt>
      <trkpt lat="45.65638" lon="4.5338">
        <ele>685</ele>
        <time>2019-07-29T11:59:55Z</time>
      </trkpt>
      <trkpt lat="45.65726" lon="4.53484">
        <ele>688</ele>
        <time>2019-07-29T12:00:22Z</time>
      </trkpt>
      <trkpt lat="45.65814" lon="4.53567">
        <ele>680</ele>
        <time>2019-07-29T12:00:46Z</time>
      </trkpt>
      <trkpt lat="45.65827" lon="4.53583">
        <ele>678</ele>
        <time>2019-07-29T12:00:50Z</time>
      </trkpt>
      <trkpt lat="45.65833" lon="4.536">
        <ele>677</ele>
        <time>2019-07-29T12:00:53Z</time>
      </trkpt>
      <trkpt lat="45.65835" lon="4.53616">
        <ele>675</ele>
        <time>2019-07-29T12:00:56Z</time>
      </trkpt>
      <trkpt lat="45.65835" lon="4.53674">
        <ele>671</ele>
        <time>2019-07-29T12:01:06Z</time>
      </trkpt>
      <trkpt lat="45.65824" lon="4.53745">
        <ele>669</ele>
        <time>2019-07-29T12:01:17Z</time>
      </trkpt>
      <trkpt lat="45.65827" lon="4.53812">
        <ele>667</ele>
        <time>2019-07-29T12:01:28Z</time>
      </trkpt>
      <trkpt lat="45.65824" lon="4.53869">
        <ele>665</ele>
        <time>2019-07-29T12:01:38Z</time>
      </trkpt>
      <trkpt lat="45.65816" lon="4.53946">
        <ele>663</ele>
        <time>2019-07-29T12:01:50Z</time>
      </trkpt>
      <trkpt lat="45.65818" lon="4.53972">
        <ele>661</ele>
        <time>2019-07-29T12:01:55Z</time>
      </trkpt>
      <trkpt lat="45.65827" lon="4.54001">
        <ele>660</ele>
        <time>2019-07-29T12:02:00Z</time>
      </trkpt>
      <trkpt lat="45.65827" lon="4.54021">
        <ele>659</ele>
        <time>2019-07-29T12:02:03Z</time>
      </trkpt>
      <trkpt lat="45.65848" lon="4.54151">
        <ele>646</ele>
        <time>2019-07-29T12:02:25Z</time>
      </trkpt>
      <trkpt lat="45.65858" lon="4.54264">
        <ele>637</ele>
        <time>2019-07-29T12:02:44Z</time>
      </trkpt>
      <trkpt lat="45.65852" lon="4.54314">
        <ele>633</ele>
        <time>2019-07-29T12:02:52Z</time>
      </trkpt>
      <trkpt lat="45.65825" lon="4.54391">
        <ele>626</ele>
        <time>2019-07-29T12:03:06Z</time>
      </trkpt>
      <trkpt lat="45.6582" lon="4.54461">
        <ele>625</ele>
        <time>2019-07-29T12:03:17Z</time>
      </trkpt>
      <trkpt lat="45.65811" lon="4.54519">
        <ele>625</ele>
        <time>2019-07-29T12:03:27Z</time>
      </trkpt>
      <trkpt lat="45.65812" lon="4.54582">
        <ele>626</ele>
        <time>2019-07-29T12:03:37Z</time>
      </trkpt>
      <trkpt lat="45.65822" lon="4.54623">
        <ele>628</ele>
        <time>2019-07-29T12:03:44Z</time>
      </trkpt>
      <trkpt lat="45.65847" lon="4.54688">
        <ele>632</ele>
        <time>2019-07-29T12:03:57Z</time>
      </trkpt>
      <trkpt lat="45.65849" lon="4.547">
        <ele>633</ele>
        <time>2019-07-29T12:03:59Z</time>
      </trkpt>
      <trkpt lat="45.65848" lon="4.54754">
        <ele>639</ele>
        <time>2019-07-29T12:04:07Z</time>
      </trkpt>
      <trkpt lat="45.65851" lon="4.54781">
        <ele>642</ele>
        <time>2019-07-29T12:04:12Z</time>
      </trkpt>
      <trkpt lat="45.65857" lon="4.54799">
        <ele>643</ele>
        <time>2019-07-29T12:04:15Z</time>
      </trkpt>
      <trkpt lat="45.65863" lon="4.54808">
        <ele>643</ele>
        <time>2019-07-29T12:04:17Z</time>
      </trkpt>
      <trkpt lat="45.65877" lon="4.54866">
        <ele>649</ele>
        <time>2019-07-29T12:04:27Z</time>
      </trkpt>
      <trkpt lat="45.65882" lon="4.54877">
        <ele>650</ele>
        <time>2019-07-29T12:04:29Z</time>
      </trkpt>
      <trkpt lat="45.65881" lon="4.54881">
        <ele>650</ele>
        <time>2019-07-29T12:04:30Z</time>
      </trkpt>
      <trkpt lat="45.65877" lon="4.54881">
        <ele>651</ele>
        <time>2019-07-29T12:04:31Z</time>
      </trkpt>
      <trkpt lat="45.65867" lon="4.54848">
        <ele>648</ele>
        <time>2019-07-29T12:04:37Z</time>
      </trkpt>
      <trkpt lat="45.65851" lon="4.54839">
        <ele>648</ele>
        <time>2019-07-29T12:04:41Z</time>
      </trkpt>
      <trkpt lat="45.65836" lon="4.54887">
        <ele>655</ele>
        <time>2019-07-29T12:04:49Z</time>
      </trkpt>
      <trkpt lat="45.65831" lon="4.54896">
        <ele>656</ele>
        <time>2019-07-29T12:04:51Z</time>
      </trkpt>
      <trkpt lat="45.65811" lon="4.54987">
        <ele>665</ele>
        <time>2019-07-29T12:05:07Z</time>
      </trkpt>
      <trkpt lat="45.65777" lon="4.55065">
        <ele>671</ele>
        <time>2019-07-29T12:05:22Z</time>
      </trkpt>
      <trkpt lat="45.65814" lon="4.55119">
        <ele>676</ele>
        <time>2019-07-29T12:05:34Z</time>
      </trkpt>
      <trkpt lat="45.65837" lon="4.55133">
        <ele>678</ele>
        <time>2019-07-29T12:05:40Z</time>
      </trkpt>
      <trkpt lat="45.65886" lon="4.55148">
        <ele>677</ele>
        <time>2019-07-29T12:05:52Z</time>
      </trkpt>
      <trkpt lat="45.65886" lon="4.5516">
        <ele>678</ele>
        <time>2019-07-29T12:05:54Z</time>
      </trkpt>
      <trkpt lat="45.65874" lon="4.55203">
        <ele>681</ele>
        <time>2019-07-29T12:06:01Z</time>
      </trkpt>
      <trkpt lat="45.65867" lon="4.55263">
        <ele>685</ele>
        <time>2019-07-29T12:06:11Z</time>
      </trkpt>
      <trkpt lat="45.65868" lon="4.55295">
        <ele>687</ele>
        <time>2019-07-29T12:06:16Z</time>
      </trkpt>
      <trkpt lat="45.65874" lon="4.5534">
        <ele>690</ele>
        <time>2019-07-29T12:06:24Z</time>
      </trkpt>
      <trkpt lat="45.65878" lon="4.55396">
        <ele>690</ele>
        <time>2019-07-29T12:06:33Z</time>
      </trkpt>
      <trkpt lat="45.65871" lon="4.55531">
        <ele>693</ele>
        <time>2019-07-29T12:06:55Z</time>
      </trkpt>
      <trkpt lat="45.65873" lon="4.5558">
        <ele>695</ele>
        <time>2019-07-29T12:07:03Z</time>
      </trkpt>
      <trkpt lat="45.659" lon="4.55713">
        <ele>705</ele>
        <time>2019-07-29T12:07:26Z</time>
      </trkpt>
      <trkpt lat="45.65899" lon="4.55716">
        <ele>706</ele>
        <time>2019-07-29T12:07:26Z</time>
      </trkpt>
      <trkpt lat="45.65895" lon="4.55718">
        <ele>705</ele>
        <time>2019-07-29T12:07:27Z</time>
      </trkpt>
      <trkpt lat="45.65881" lon="4.55712">
        <ele>704</ele>
        <time>2019-07-29T12:07:31Z</time>
      </trkpt>
      <trkpt lat="45.65837" lon="4.55664">
        <ele>699</ele>
        <time>2019-07-29T12:07:44Z</time>
      </trkpt>
      <trkpt lat="45.65791" lon="4.55606">
        <ele>693</ele>
        <time>2019-07-29T12:07:58Z</time>
      </trkpt>
      <trkpt lat="45.65787" lon="4.55591">
        <ele>692</ele>
        <time>2019-07-29T12:08:01Z</time>
      </trkpt>
      <trkpt lat="45.65784" lon="4.55551">
        <ele>690</ele>
        <time>2019-07-29T12:08:07Z</time>
      </trkpt>
      <trkpt lat="45.65775" lon="4.55569">
        <ele>690</ele>
        <time>2019-07-29T12:08:11Z</time>
      </trkpt>
      <trkpt lat="45.65773" lon="4.556">
        <ele>692</ele>
        <time>2019-07-29T12:08:16Z</time>
      </trkpt>
      <trkpt lat="45.65769" lon="4.55599">
        <ele>691</ele>
        <time>2019-07-29T12:08:17Z</time>
      </trkpt>
    </trkseg>
  </trk>
</gpx>